<?xml version='1.0' encoding='UTF-8'?><gpx version="1.1" creator="JPX - https://github.com/jenetics/jpx" xmlns="http://www.topografix.com/GPX/1/1"><trk><trkseg><trkpt lat="45.1299937" lon="11.6847368"><ele>6.0</ele><time>2026-04-19T06:27:47.841Z</time></trkpt><trkpt lat="45.1300153" lon="11.6848215"><ele>6.0</ele><time>2026-04-19T06:27:52.162Z</time></trkpt><trkpt lat="45.1295632" lon="11.6864047"><ele>6.0</ele><time>2026-04-19T06:28:41.713Z</time></trkpt><trkpt lat="45.1296188" lon="11.6862125"><ele>6.0</ele><time>2026-04-19T06:30:24.169Z</time></trkpt><trkpt lat="45.1319532" lon="11.6899723"><ele>4.0</ele><time>2026-04-19T06:32:54.552Z</time></trkpt><trkpt lat="45.1354012" lon="11.6955902"><ele>4.0</ele><time>2026-04-19T06:36:17.686Z</time></trkpt><trkpt lat="45.1356694" lon="11.698063"><ele>4.166666666666666</ele><time>2026-04-19T06:37:20.032Z</time></trkpt><trkpt lat="45.1357465" lon="11.6980916"><ele>4.333333333333333</ele><time>2026-04-19T06:37:21.08Z</time></trkpt><trkpt lat="45.1357931" lon="11.6981876"><ele>4.5</ele><time>2026-04-19T06:37:23.052Z</time></trkpt><trkpt lat="45.1358157" lon="11.6982996"><ele>4.666666666666667</ele><time>2026-04-19T06:37:25.084Z</time></trkpt><trkpt lat="45.1358616" lon="11.6984107"><ele>4.833333333333334</ele><time>2026-04-19T06:37:28.106Z</time></trkpt><trkpt lat="45.1359088" lon="11.6985165"><ele>5.0</ele><time>2026-04-19T06:37:31.045Z</time></trkpt><trkpt lat="45.1359588" lon="11.698616"><ele>5.0</ele><time>2026-04-19T06:37:34.109Z</time></trkpt><trkpt lat="45.136005" lon="11.6987101"><ele>5.0</ele><time>2026-04-19T06:37:37.115Z</time></trkpt><trkpt lat="45.1360493" lon="11.6988028"><ele>5.0</ele><time>2026-04-19T06:37:40.125Z</time></trkpt><trkpt lat="45.1360858" lon="11.6989136"><ele>5.0</ele><time>2026-04-19T06:37:43.09Z</time></trkpt><trkpt lat="45.1361255" lon="11.6990345"><ele>5.0</ele><time>2026-04-19T06:37:46.158Z</time></trkpt><trkpt lat="45.1361542" lon="11.6991474"><ele>5.0</ele><time>2026-04-19T06:37:49.164Z</time></trkpt><trkpt lat="45.1362015" lon="11.6992578"><ele>5.0</ele><time>2026-04-19T06:37:52.16Z</time></trkpt><trkpt lat="45.1362319" lon="11.6993544"><ele>5.0</ele><time>2026-04-19T06:37:54.757Z</time></trkpt><trkpt lat="45.1362621" lon="11.6994855"><ele>5.0</ele><time>2026-04-19T06:37:58.092Z</time></trkpt><trkpt lat="45.136292" lon="11.699607"><ele>5.0</ele><time>2026-04-19T06:38:01.285Z</time></trkpt><trkpt lat="45.1363207" lon="11.6997214"><ele>5.0</ele><time>2026-04-19T06:38:04.263Z</time></trkpt><trkpt lat="45.1363472" lon="11.6998306"><ele>5.0</ele><time>2026-04-19T06:38:07.262Z</time></trkpt><trkpt lat="45.1363828" lon="11.6999597"><ele>4.833333333333334</ele><time>2026-04-19T06:38:10.899Z</time></trkpt><trkpt lat="45.1364119" lon="11.7000728"><ele>4.666666666666667</ele><time>2026-04-19T06:38:13.905Z</time></trkpt><trkpt lat="45.1364331" lon="11.7002025"><ele>4.5</ele><time>2026-04-19T06:38:17.144Z</time></trkpt><trkpt lat="45.1364453" lon="11.7003201"><ele>4.333333333333333</ele><time>2026-04-19T06:38:20.161Z</time></trkpt><trkpt lat="45.1364381" lon="11.7004437"><ele>4.166666666666666</ele><time>2026-04-19T06:38:23.057Z</time></trkpt><trkpt lat="45.1364436" lon="11.700574"><ele>4.0</ele><time>2026-04-19T06:38:26.14Z</time></trkpt><trkpt lat="45.1364524" lon="11.7006978"><ele>4.0</ele><time>2026-04-19T06:38:29.079Z</time></trkpt><trkpt lat="45.1364605" lon="11.700789"><ele>4.0</ele><time>2026-04-19T06:38:31.466Z</time></trkpt><trkpt lat="45.1364608" lon="11.7008959"><ele>4.0</ele><time>2026-04-19T06:38:34.157Z</time></trkpt><trkpt lat="45.1364766" lon="11.7010081"><ele>4.0</ele><time>2026-04-19T06:38:37.17Z</time></trkpt><trkpt lat="45.1364727" lon="11.7011263"><ele>4.0</ele><time>2026-04-19T06:38:40.201Z</time></trkpt><trkpt lat="45.1363315" lon="11.7003863"><ele>7.0</ele><time>2026-04-19T06:38:56.218Z</time></trkpt><trkpt lat="45.1378989" lon="11.71138"><ele>7.0</ele><time>2026-04-19T06:43:30.585Z</time></trkpt><trkpt lat="45.1380453" lon="11.7117068"><ele>7.0</ele><time>2026-04-19T06:43:44.52Z</time></trkpt><trkpt lat="45.1381355" lon="11.7118793"><ele>7.0</ele><time>2026-04-19T06:43:51.602Z</time></trkpt><trkpt lat="45.1389944" lon="11.7116131"><ele>6.833333333333334</ele><time>2026-04-19T06:44:19.506Z</time></trkpt><trkpt lat="45.1389758" lon="11.7117314"><ele>6.666666666666667</ele><time>2026-04-19T06:44:22.006Z</time></trkpt><trkpt lat="45.1390489" lon="11.7117754"><ele>6.5</ele><time>2026-04-19T06:44:24.997Z</time></trkpt><trkpt lat="45.1391376" lon="11.7117988"><ele>6.333333333333334</ele><time>2026-04-19T06:44:28.106Z</time></trkpt><trkpt lat="45.1392023" lon="11.7117786"><ele>6.166666666666667</ele><time>2026-04-19T06:44:30.076Z</time></trkpt><trkpt lat="45.139263" lon="11.7117385"><ele>6.0</ele><time>2026-04-19T06:44:32.157Z</time></trkpt><trkpt lat="45.1393485" lon="11.7117085"><ele>5.666666666666667</ele><time>2026-04-19T06:44:35.249Z</time></trkpt><trkpt lat="45.1394183" lon="11.7117033"><ele>5.333333333333333</ele><time>2026-04-19T06:44:37.571Z</time></trkpt><trkpt lat="45.1394894" lon="11.7116995"><ele>5.0</ele><time>2026-04-19T06:44:40.04Z</time></trkpt><trkpt lat="45.1395572" lon="11.7116989"><ele>4.666666666666666</ele><time>2026-04-19T06:44:42.121Z</time></trkpt><trkpt lat="45.1396453" lon="11.7117183"><ele>4.333333333333333</ele><time>2026-04-19T06:44:45.077Z</time></trkpt><trkpt lat="45.1397331" lon="11.7117497"><ele>4.0</ele><time>2026-04-19T06:44:48.166Z</time></trkpt><trkpt lat="45.1398159" lon="11.711734"><ele>4.166666666666666</ele><time>2026-04-19T06:44:51.1Z</time></trkpt><trkpt lat="45.139901" lon="11.7116974"><ele>4.333333333333333</ele><time>2026-04-19T06:44:54.157Z</time></trkpt><trkpt lat="45.1399684" lon="11.7116704"><ele>4.5</ele><time>2026-04-19T06:44:56.446Z</time></trkpt><trkpt lat="45.1400346" lon="11.7116554"><ele>4.666666666666667</ele><time>2026-04-19T06:44:58.786Z</time></trkpt><trkpt lat="45.14013" lon="11.7116334"><ele>4.833333333333334</ele><time>2026-04-19T06:45:02.07Z</time></trkpt><trkpt lat="45.1402169" lon="11.7116337"><ele>5.0</ele><time>2026-04-19T06:45:05.031Z</time></trkpt><trkpt lat="45.1403054" lon="11.7116272"><ele>5.0</ele><time>2026-04-19T06:45:08.055Z</time></trkpt><trkpt lat="45.1403848" lon="11.7116239"><ele>5.0</ele><time>2026-04-19T06:45:11.046Z</time></trkpt><trkpt lat="45.1404628" lon="11.7115911"><ele>5.0</ele><time>2026-04-19T06:45:14.057Z</time></trkpt><trkpt lat="45.1405404" lon="11.7115542"><ele>5.0</ele><time>2026-04-19T06:45:17.002Z</time></trkpt><trkpt lat="45.1406199" lon="11.7115167"><ele>5.0</ele><time>2026-04-19T06:45:20.018Z</time></trkpt><trkpt lat="45.1407002" lon="11.7115001"><ele>5.0</ele><time>2026-04-19T06:45:23.072Z</time></trkpt><trkpt lat="45.1407821" lon="11.7114994"><ele>4.833333333333334</ele><time>2026-04-19T06:45:26.161Z</time></trkpt><trkpt lat="45.1408623" lon="11.7115257"><ele>4.666666666666667</ele><time>2026-04-19T06:45:29.094Z</time></trkpt><trkpt lat="45.1409472" lon="11.7115523"><ele>4.5</ele><time>2026-04-19T06:45:32.05Z</time></trkpt><trkpt lat="45.1410323" lon="11.7115747"><ele>4.333333333333333</ele><time>2026-04-19T06:45:35.161Z</time></trkpt><trkpt lat="45.1411153" lon="11.7115979"><ele>4.166666666666666</ele><time>2026-04-19T06:45:38.14Z</time></trkpt><trkpt lat="45.1412016" lon="11.7116419"><ele>4.0</ele><time>2026-04-19T06:45:41.111Z</time></trkpt><trkpt lat="45.1424511" lon="11.7124434"><ele>3.0</ele><time>2026-04-19T06:46:25.6Z</time></trkpt><trkpt lat="45.1426494" lon="11.7124846"><ele>2.0</ele><time>2026-04-19T06:46:33.784Z</time></trkpt><trkpt lat="45.1431803" lon="11.7127251"><ele>2.0</ele><time>2026-04-19T06:46:47.552Z</time></trkpt><trkpt lat="45.1433545" lon="11.7128058"><ele>2.0</ele><time>2026-04-19T06:46:54.603Z</time></trkpt><trkpt lat="45.1435971" lon="11.7129305"><ele>2.0</ele><time>2026-04-19T06:47:01.596Z</time></trkpt><trkpt lat="45.1465267" lon="11.7135765"><ele>2.0</ele><time>2026-04-19T06:48:18.529Z</time></trkpt><trkpt lat="45.1467978" lon="11.7134213"><ele>2.0</ele><time>2026-04-19T06:48:56.855Z</time></trkpt><trkpt lat="45.146917" lon="11.7135407"><ele>2.0</ele><time>2026-04-19T06:48:58.821Z</time></trkpt><trkpt lat="45.1469974" lon="11.7135826"><ele>1.9999999999999998</ele><time>2026-04-19T06:49:01.862Z</time></trkpt><trkpt lat="45.1470799" lon="11.7136277"><ele>2.0</ele><time>2026-04-19T06:49:05.198Z</time></trkpt><trkpt lat="45.1471531" lon="11.7136143"><ele>2.0</ele><time>2026-04-19T06:49:08.173Z</time></trkpt><trkpt lat="45.147237" lon="11.7136304"><ele>2.0</ele><time>2026-04-19T06:49:11.185Z</time></trkpt><trkpt lat="45.1473387" lon="11.7136576"><ele>1.9999999999999998</ele><time>2026-04-19T06:49:14.549Z</time></trkpt><trkpt lat="45.1474369" lon="11.7136755"><ele>2.0</ele><time>2026-04-19T06:49:17.85Z</time></trkpt><trkpt lat="45.1475481" lon="11.7136723"><ele>2.0</ele><time>2026-04-19T06:49:21.617Z</time></trkpt><trkpt lat="45.1477458" lon="11.713679"><ele>2.0</ele><time>2026-04-19T06:49:28.598Z</time></trkpt><trkpt lat="45.148013" lon="11.713633"><ele>1.5</ele><time>2026-04-19T06:49:35.593Z</time></trkpt><trkpt lat="45.1479322" lon="11.7134219"><ele>1.0</ele><time>2026-04-19T06:49:42.64Z</time></trkpt><trkpt lat="45.1485111" lon="11.7137879"><ele>1.1666666666666665</ele><time>2026-04-19T06:50:05.872Z</time></trkpt><trkpt lat="45.1484676" lon="11.7136993"><ele>1.3333333333333333</ele><time>2026-04-19T06:50:10.879Z</time></trkpt><trkpt lat="45.1484149" lon="11.7136489"><ele>1.5</ele><time>2026-04-19T06:50:12.89Z</time></trkpt><trkpt lat="45.1483513" lon="11.7135745"><ele>1.6666666666666665</ele><time>2026-04-19T06:50:15.547Z</time></trkpt><trkpt lat="45.1483343" lon="11.7134596"><ele>1.8333333333333333</ele><time>2026-04-19T06:50:18.516Z</time></trkpt><trkpt lat="45.1483056" lon="11.713346"><ele>2.0</ele><time>2026-04-19T06:50:21.564Z</time></trkpt><trkpt lat="45.1482788" lon="11.7132576"><ele>2.0</ele><time>2026-04-19T06:50:23.864Z</time></trkpt><trkpt lat="45.1482568" lon="11.7131722"><ele>2.0</ele><time>2026-04-19T06:50:26.038Z</time></trkpt><trkpt lat="45.1482198" lon="11.7130618"><ele>2.0</ele><time>2026-04-19T06:50:29.162Z</time></trkpt><trkpt lat="45.1494032" lon="11.7142276"><ele>5.0</ele><time>2026-04-19T06:50:52.666Z</time></trkpt><trkpt lat="45.1498997" lon="11.7148588"><ele>5.0</ele><time>2026-04-19T06:50:59.574Z</time></trkpt><trkpt lat="45.1501827" lon="11.7152883"><ele>5.0</ele><time>2026-04-19T06:51:06.567Z</time></trkpt><trkpt lat="45.1501665" lon="11.7150508"><ele>5.0</ele><time>2026-04-19T06:51:08.946Z</time></trkpt><trkpt lat="45.1502567" lon="11.7150949"><ele>5.0</ele><time>2026-04-19T06:51:12.161Z</time></trkpt><trkpt lat="45.1503341" lon="11.7151507"><ele>5.0</ele><time>2026-04-19T06:51:14.978Z</time></trkpt><trkpt lat="45.1504234" lon="11.7151889"><ele>5.0</ele><time>2026-04-19T06:51:17.924Z</time></trkpt><trkpt lat="45.1505241" lon="11.7151895"><ele>5.0</ele><time>2026-04-19T06:51:20.961Z</time></trkpt><trkpt lat="45.1505939" lon="11.7152042"><ele>5.0</ele><time>2026-04-19T06:51:23.95Z</time></trkpt><trkpt lat="45.1506895" lon="11.7152105"><ele>4.666666666666667</ele><time>2026-04-19T06:51:27.602Z</time></trkpt><trkpt lat="45.1508745" lon="11.7151944"><ele>4.333333333333333</ele><time>2026-04-19T06:51:34.592Z</time></trkpt><trkpt lat="45.1511103" lon="11.7150287"><ele>4.0</ele><time>2026-04-19T06:51:42.792Z</time></trkpt><trkpt lat="45.15116" lon="11.7151225"><ele>3.9999999999999996</ele><time>2026-04-19T06:51:46.03Z</time></trkpt><trkpt lat="45.1511508" lon="11.7152478"><ele>4.0</ele><time>2026-04-19T06:51:49.001Z</time></trkpt><trkpt lat="45.1511385" lon="11.715374"><ele>4.0</ele><time>2026-04-19T06:51:52.002Z</time></trkpt><trkpt lat="45.1511341" lon="11.7155031"><ele>4.0</ele><time>2026-04-19T06:51:55.057Z</time></trkpt><trkpt lat="45.1511398" lon="11.715626"><ele>3.9999999999999996</ele><time>2026-04-19T06:51:58.072Z</time></trkpt><trkpt lat="45.1511378" lon="11.7157476"><ele>4.0</ele><time>2026-04-19T06:52:01.085Z</time></trkpt><trkpt lat="45.1511421" lon="11.7158848"><ele>4.0</ele><time>2026-04-19T06:52:04.09Z</time></trkpt><trkpt lat="45.1511443" lon="11.7159817"><ele>4.0</ele><time>2026-04-19T06:52:07.087Z</time></trkpt><trkpt lat="45.151103" lon="11.7161549"><ele>4.0</ele><time>2026-04-19T06:52:16.221Z</time></trkpt><trkpt lat="45.1509793" lon="11.7158197"><ele>4.0</ele><time>2026-04-19T06:52:30.206Z</time></trkpt><trkpt lat="45.1526457" lon="11.7140924"><ele>4.0</ele><time>2026-04-19T06:52:38.645Z</time></trkpt><trkpt lat="45.1527501" lon="11.7139783"><ele>4.0</ele><time>2026-04-19T06:52:44.928Z</time></trkpt><trkpt lat="45.1526473" lon="11.7138554"><ele>4.0</ele><time>2026-04-19T06:52:46.111Z</time></trkpt><trkpt lat="45.1527039" lon="11.7138016"><ele>4.0</ele><time>2026-04-19T06:52:49.068Z</time></trkpt><trkpt lat="45.1527697" lon="11.7137769"><ele>4.0</ele><time>2026-04-19T06:52:50.258Z</time></trkpt><trkpt lat="45.1528401" lon="11.7137663"><ele>4.0</ele><time>2026-04-19T06:52:52.161Z</time></trkpt><trkpt lat="45.1529097" lon="11.7137537"><ele>3.9999999999999996</ele><time>2026-04-19T06:52:54.161Z</time></trkpt><trkpt lat="45.1529761" lon="11.7137417"><ele>4.0</ele><time>2026-04-19T06:52:56.074Z</time></trkpt><trkpt lat="45.1530444" lon="11.7137275"><ele>4.0</ele><time>2026-04-19T06:52:58.161Z</time></trkpt><trkpt lat="45.1531247" lon="11.7137193"><ele>3.9999999999999996</ele><time>2026-04-19T06:53:00.127Z</time></trkpt><trkpt lat="45.153196" lon="11.7137181"><ele>4.0</ele><time>2026-04-19T06:53:02.097Z</time></trkpt><trkpt lat="45.1532652" lon="11.7137261"><ele>4.0</ele><time>2026-04-19T06:53:04.068Z</time></trkpt><trkpt lat="45.1533345" lon="11.7137359"><ele>4.166666666666666</ele><time>2026-04-19T06:53:06.148Z</time></trkpt><trkpt lat="45.1534257" lon="11.7137428"><ele>4.333333333333333</ele><time>2026-04-19T06:53:09.105Z</time></trkpt><trkpt lat="45.1535118" lon="11.7137556"><ele>4.5</ele><time>2026-04-19T06:53:12.061Z</time></trkpt><trkpt lat="45.1535979" lon="11.7137653"><ele>4.666666666666667</ele><time>2026-04-19T06:53:15.153Z</time></trkpt><trkpt lat="45.1536846" lon="11.7137569"><ele>4.833333333333334</ele><time>2026-04-19T06:53:18.159Z</time></trkpt><trkpt lat="45.1537717" lon="11.7137257"><ele>5.0</ele><time>2026-04-19T06:53:21.147Z</time></trkpt><trkpt lat="45.1538331" lon="11.7137055"><ele>5.0</ele><time>2026-04-19T06:53:23.141Z</time></trkpt><trkpt lat="45.1539199" lon="11.7136772"><ele>5.0</ele><time>2026-04-19T06:53:26.132Z</time></trkpt><trkpt lat="45.1540021" lon="11.7136548"><ele>5.0</ele><time>2026-04-19T06:53:29.085Z</time></trkpt><trkpt lat="45.1540839" lon="11.713645"><ele>5.0</ele><time>2026-04-19T06:53:32.161Z</time></trkpt><trkpt lat="45.1541679" lon="11.7136308"><ele>5.0</ele><time>2026-04-19T06:53:36.067Z</time></trkpt><trkpt lat="45.1542451" lon="11.7136273"><ele>5.0</ele><time>2026-04-19T06:53:39.024Z</time></trkpt><trkpt lat="45.1543428" lon="11.7136117"><ele>5.166666666666667</ele><time>2026-04-19T06:53:42.009Z</time></trkpt><trkpt lat="45.1544081" lon="11.7136044"><ele>5.333333333333334</ele><time>2026-04-19T06:53:44.161Z</time></trkpt><trkpt lat="45.1544729" lon="11.7135997"><ele>5.5</ele><time>2026-04-19T06:53:46.161Z</time></trkpt><trkpt lat="45.1545387" lon="11.7135941"><ele>5.666666666666667</ele><time>2026-04-19T06:53:48.085Z</time></trkpt><trkpt lat="45.1546339" lon="11.7135774"><ele>5.833333333333333</ele><time>2026-04-19T06:53:51.161Z</time></trkpt><trkpt lat="45.1547218" lon="11.7135492"><ele>6.0</ele><time>2026-04-19T06:53:54.107Z</time></trkpt><trkpt lat="45.1548146" lon="11.7135277"><ele>6.0</ele><time>2026-04-19T06:53:57.197Z</time></trkpt><trkpt lat="45.1549058" lon="11.7135308"><ele>6.0</ele><time>2026-04-19T06:54:00.161Z</time></trkpt><trkpt lat="45.1549692" lon="11.7135298"><ele>6.0</ele><time>2026-04-19T06:54:02.147Z</time></trkpt><trkpt lat="45.1550362" lon="11.7135398"><ele>6.0</ele><time>2026-04-19T06:54:04.142Z</time></trkpt><trkpt lat="45.1551279" lon="11.7135686"><ele>6.0</ele><time>2026-04-19T06:54:07.15Z</time></trkpt><trkpt lat="45.1552041" lon="11.7136109"><ele>6.0</ele><time>2026-04-19T06:54:10.11Z</time></trkpt><trkpt lat="45.1552828" lon="11.7136421"><ele>6.166666666666667</ele><time>2026-04-19T06:54:13.126Z</time></trkpt><trkpt lat="45.1553704" lon="11.7136664"><ele>6.333333333333334</ele><time>2026-04-19T06:54:16.072Z</time></trkpt><trkpt lat="45.155455" lon="11.7136976"><ele>6.5</ele><time>2026-04-19T06:54:19.048Z</time></trkpt><trkpt lat="45.155545" lon="11.7137309"><ele>6.666666666666667</ele><time>2026-04-19T06:54:22.137Z</time></trkpt><trkpt lat="45.1556308" lon="11.7137625"><ele>6.833333333333334</ele><time>2026-04-19T06:54:25.094Z</time></trkpt><trkpt lat="45.1557101" lon="11.7138204"><ele>7.0</ele><time>2026-04-19T06:54:28.161Z</time></trkpt><trkpt lat="45.1557902" lon="11.7138669"><ele>6.6</ele><time>2026-04-19T06:54:31.117Z</time></trkpt><trkpt lat="45.1558683" lon="11.7139253"><ele>6.199999999999999</ele><time>2026-04-19T06:54:34.072Z</time></trkpt><trkpt lat="45.1559524" lon="11.7139863"><ele>5.8</ele><time>2026-04-19T06:54:37.161Z</time></trkpt><trkpt lat="45.1560401" lon="11.7140279"><ele>5.4</ele><time>2026-04-19T06:54:40.247Z</time></trkpt><trkpt lat="45.1561265" lon="11.7140698"><ele>5.0</ele><time>2026-04-19T06:54:43.147Z</time></trkpt><trkpt lat="45.1562095" lon="11.7141323"><ele>5.0</ele><time>2026-04-19T06:54:46.116Z</time></trkpt><trkpt lat="45.156291" lon="11.7141941"><ele>5.0</ele><time>2026-04-19T06:54:49.174Z</time></trkpt><trkpt lat="45.1563425" lon="11.7142491"><ele>5.0</ele><time>2026-04-19T06:54:51.222Z</time></trkpt><trkpt lat="45.1563928" lon="11.7143091"><ele>5.0</ele><time>2026-04-19T06:54:53.192Z</time></trkpt><trkpt lat="45.1564642" lon="11.714382"><ele>5.0</ele><time>2026-04-19T06:54:56.08Z</time></trkpt><trkpt lat="45.1565365" lon="11.7144563"><ele>5.0</ele><time>2026-04-19T06:54:59.146Z</time></trkpt><trkpt lat="45.156613" lon="11.7145235"><ele>5.0</ele><time>2026-04-19T06:55:02.203Z</time></trkpt><trkpt lat="45.1566917" lon="11.7145892"><ele>5.0</ele><time>2026-04-19T06:55:05.191Z</time></trkpt><trkpt lat="45.1567763" lon="11.7146384"><ele>5.0</ele><time>2026-04-19T06:55:08.186Z</time></trkpt><trkpt lat="45.1568605" lon="11.714669"><ele>5.0</ele><time>2026-04-19T06:55:11.161Z</time></trkpt><trkpt lat="45.1569198" lon="11.7147014"><ele>5.0</ele><time>2026-04-19T06:55:13.169Z</time></trkpt><trkpt lat="45.1570064" lon="11.714736"><ele>5.0</ele><time>2026-04-19T06:55:16.256Z</time></trkpt><trkpt lat="45.1570851" lon="11.7147855"><ele>5.0</ele><time>2026-04-19T06:55:19.147Z</time></trkpt><trkpt lat="45.1571651" lon="11.7148416"><ele>5.0</ele><time>2026-04-19T06:55:22.087Z</time></trkpt><trkpt lat="45.1572452" lon="11.7148929"><ele>5.0</ele><time>2026-04-19T06:55:25.004Z</time></trkpt><trkpt lat="45.1573083" lon="11.7149069"><ele>5.0</ele><time>2026-04-19T06:55:27.067Z</time></trkpt><trkpt lat="45.157395" lon="11.7149496"><ele>5.0</ele><time>2026-04-19T06:55:30.161Z</time></trkpt><trkpt lat="45.1574822" lon="11.7149592"><ele>5.0</ele><time>2026-04-19T06:55:33.09Z</time></trkpt><trkpt lat="45.1575701" lon="11.7149624"><ele>5.0</ele><time>2026-04-19T06:55:36.155Z</time></trkpt><trkpt lat="45.157664" lon="11.7149453"><ele>5.0</ele><time>2026-04-19T06:55:39.161Z</time></trkpt><trkpt lat="45.1577255" lon="11.7149068"><ele>5.0</ele><time>2026-04-19T06:55:41.082Z</time></trkpt><trkpt lat="45.1578144" lon="11.7149226"><ele>5.0</ele><time>2026-04-19T06:55:44.161Z</time></trkpt><trkpt lat="45.1579175" lon="11.7148616"><ele>5.0</ele><time>2026-04-19T06:55:47.104Z</time></trkpt><trkpt lat="45.1579817" lon="11.7148471"><ele>5.0</ele><time>2026-04-19T06:55:49.162Z</time></trkpt><trkpt lat="45.1580706" lon="11.7148209"><ele>5.0</ele><time>2026-04-19T06:55:52.142Z</time></trkpt><trkpt lat="45.1581602" lon="11.714799"><ele>5.0</ele><time>2026-04-19T06:55:55.098Z</time></trkpt><trkpt lat="45.1582454" lon="11.7147542"><ele>5.0</ele><time>2026-04-19T06:55:58.036Z</time></trkpt><trkpt lat="45.1583359" lon="11.7147187"><ele>5.0</ele><time>2026-04-19T06:56:01.004Z</time></trkpt><trkpt lat="45.1584004" lon="11.7147023"><ele>5.0</ele><time>2026-04-19T06:56:03.091Z</time></trkpt><trkpt lat="45.1584627" lon="11.7146834"><ele>5.0</ele><time>2026-04-19T06:56:05.061Z</time></trkpt><trkpt lat="45.1585258" lon="11.7146668"><ele>5.0</ele><time>2026-04-19T06:56:07.03Z</time></trkpt><trkpt lat="45.158601" lon="11.7146429"><ele>5.0</ele><time>2026-04-19T06:56:09.021Z</time></trkpt><trkpt lat="45.1586616" lon="11.7146123"><ele>5.0</ele><time>2026-04-19T06:56:11.161Z</time></trkpt><trkpt lat="45.1587454" lon="11.7145934"><ele>5.0</ele><time>2026-04-19T06:56:14.087Z</time></trkpt><trkpt lat="45.1588261" lon="11.7145846"><ele>5.0</ele><time>2026-04-19T06:56:17.063Z</time></trkpt><trkpt lat="45.1589085" lon="11.7145641"><ele>5.0</ele><time>2026-04-19T06:56:20.094Z</time></trkpt><trkpt lat="45.1589848" lon="11.7145229"><ele>5.0</ele><time>2026-04-19T06:56:23.001Z</time></trkpt><trkpt lat="45.159069" lon="11.7144863"><ele>5.0</ele><time>2026-04-19T06:56:26.056Z</time></trkpt><trkpt lat="45.1591494" lon="11.7144492"><ele>5.0</ele><time>2026-04-19T06:56:29.023Z</time></trkpt><trkpt lat="45.1592321" lon="11.714419"><ele>5.0</ele><time>2026-04-19T06:56:32.161Z</time></trkpt><trkpt lat="45.159315" lon="11.7144153"><ele>5.0</ele><time>2026-04-19T06:56:35.063Z</time></trkpt><trkpt lat="45.1593997" lon="11.7144136"><ele>5.0</ele><time>2026-04-19T06:56:38.069Z</time></trkpt><trkpt lat="45.1594901" lon="11.7144128"><ele>5.0</ele><time>2026-04-19T06:56:41.077Z</time></trkpt><trkpt lat="45.1595791" lon="11.7144135"><ele>5.0</ele><time>2026-04-19T06:56:44.147Z</time></trkpt><trkpt lat="45.1596644" lon="11.714388"><ele>5.0</ele><time>2026-04-19T06:56:47.205Z</time></trkpt><trkpt lat="45.1597447" lon="11.7143451"><ele>5.0</ele><time>2026-04-19T06:56:50.162Z</time></trkpt><trkpt lat="45.1598223" lon="11.7143262"><ele>5.0</ele><time>2026-04-19T06:56:53.265Z</time></trkpt><trkpt lat="45.1598968" lon="11.7143015"><ele>5.0</ele><time>2026-04-19T06:56:56.382Z</time></trkpt><trkpt lat="45.1599703" lon="11.7142755"><ele>4.666666666666667</ele><time>2026-04-19T06:56:59.362Z</time></trkpt><trkpt lat="45.1600522" lon="11.7142558"><ele>4.333333333333334</ele><time>2026-04-19T06:57:02.483Z</time></trkpt><trkpt lat="45.1601282" lon="11.7142387"><ele>4.0</ele><time>2026-04-19T06:57:05.51Z</time></trkpt><trkpt lat="45.1602" lon="11.7142117"><ele>3.666666666666667</ele><time>2026-04-19T06:57:08.6Z</time></trkpt><trkpt lat="45.1602739" lon="11.7141931"><ele>3.3333333333333335</ele><time>2026-04-19T06:57:11.62Z</time></trkpt><trkpt lat="45.1603555" lon="11.7141741"><ele>3.0</ele><time>2026-04-19T06:57:14.701Z</time></trkpt><trkpt lat="45.1604385" lon="11.7141401"><ele>3.0</ele><time>2026-04-19T06:57:17.725Z</time></trkpt><trkpt lat="45.1605239" lon="11.7141216"><ele>3.0</ele><time>2026-04-19T06:57:20.82Z</time></trkpt><trkpt lat="45.1606067" lon="11.7141029"><ele>3.0</ele><time>2026-04-19T06:57:23.791Z</time></trkpt><trkpt lat="45.1606688" lon="11.7140777"><ele>3.0</ele><time>2026-04-19T06:57:26.17Z</time></trkpt><trkpt lat="45.1607494" lon="11.7140374"><ele>3.0</ele><time>2026-04-19T06:57:29.258Z</time></trkpt><trkpt lat="45.1608246" lon="11.7139739"><ele>3.0</ele><time>2026-04-19T06:57:32.266Z</time></trkpt><trkpt lat="45.1609021" lon="11.7139188"><ele>3.0</ele><time>2026-04-19T06:57:35.282Z</time></trkpt><trkpt lat="45.1609799" lon="11.7138709"><ele>3.0</ele><time>2026-04-19T06:57:38.342Z</time></trkpt><trkpt lat="45.1610428" lon="11.7138565"><ele>3.0</ele><time>2026-04-19T06:57:40.701Z</time></trkpt><trkpt lat="45.161123" lon="11.713827"><ele>3.0</ele><time>2026-04-19T06:57:43.73Z</time></trkpt><trkpt lat="45.1612103" lon="11.713765"><ele>3.0</ele><time>2026-04-19T06:57:46.703Z</time></trkpt><trkpt lat="45.1612817" lon="11.7137184"><ele>3.0</ele><time>2026-04-19T06:57:49.772Z</time></trkpt><trkpt lat="45.1609562" lon="11.7147393"><ele>4.0</ele><time>2026-04-19T06:57:53.574Z</time></trkpt><trkpt lat="45.1615539" lon="11.7138914"><ele>3.0</ele><time>2026-04-19T06:58:00.557Z</time></trkpt><trkpt lat="45.1620418" lon="11.7133077"><ele>3.5</ele><time>2026-04-19T06:58:14.738Z</time></trkpt><trkpt lat="45.1624151" lon="11.7130274"><ele>4.0</ele><time>2026-04-19T06:58:28.59Z</time></trkpt><trkpt lat="45.1630593" lon="11.7126413"><ele>4.166666666666666</ele><time>2026-04-19T06:58:57.618Z</time></trkpt><trkpt lat="45.1630644" lon="11.7125411"><ele>4.333333333333333</ele><time>2026-04-19T06:58:58.603Z</time></trkpt><trkpt lat="45.1630847" lon="11.7124155"><ele>4.5</ele><time>2026-04-19T06:59:01.04Z</time></trkpt><trkpt lat="45.1631055" lon="11.7123215"><ele>4.666666666666667</ele><time>2026-04-19T06:59:03.401Z</time></trkpt><trkpt lat="45.1631236" lon="11.7122285"><ele>4.833333333333334</ele><time>2026-04-19T06:59:05.79Z</time></trkpt><trkpt lat="45.1631456" lon="11.7121025"><ele>5.0</ele><time>2026-04-19T06:59:08.767Z</time></trkpt><trkpt lat="45.1631649" lon="11.7119845"><ele>5.0</ele><time>2026-04-19T06:59:11.843Z</time></trkpt><trkpt lat="45.1632261" lon="11.7131732"><ele>5.0</ele><time>2026-04-19T06:59:14.819Z</time></trkpt><trkpt lat="45.1635875" lon="11.7124312"><ele>5.0</ele><time>2026-04-19T06:59:17.849Z</time></trkpt><trkpt lat="45.1636506" lon="11.712361"><ele>5.0</ele><time>2026-04-19T06:59:19.86Z</time></trkpt><trkpt lat="45.1636905" lon="11.7122749"><ele>5.0</ele><time>2026-04-19T06:59:20.861Z</time></trkpt><trkpt lat="45.1637544" lon="11.7122321"><ele>5.0</ele><time>2026-04-19T06:59:22.887Z</time></trkpt><trkpt lat="45.1638211" lon="11.7122116"><ele>5.0</ele><time>2026-04-19T06:59:24.911Z</time></trkpt><trkpt lat="45.163909" lon="11.7121744"><ele>5.0</ele><time>2026-04-19T06:59:27.963Z</time></trkpt><trkpt lat="45.163993" lon="11.7121353"><ele>4.666666666666667</ele><time>2026-04-19T06:59:30.94Z</time></trkpt><trkpt lat="45.1640747" lon="11.7120843"><ele>4.333333333333334</ele><time>2026-04-19T06:59:34.016Z</time></trkpt><trkpt lat="45.164156" lon="11.7120396"><ele>4.0</ele><time>2026-04-19T06:59:37.009Z</time></trkpt><trkpt lat="45.1642316" lon="11.7120235"><ele>3.666666666666667</ele><time>2026-04-19T06:59:40.069Z</time></trkpt><trkpt lat="45.1643064" lon="11.7119895"><ele>3.3333333333333335</ele><time>2026-04-19T06:59:43.053Z</time></trkpt><trkpt lat="45.1643866" lon="11.7119467"><ele>3.0</ele><time>2026-04-19T06:59:46.085Z</time></trkpt><trkpt lat="45.1644695" lon="11.711901"><ele>3.0</ele><time>2026-04-19T06:59:49.056Z</time></trkpt><trkpt lat="45.1645225" lon="11.7118478"><ele>3.0</ele><time>2026-04-19T06:59:51.081Z</time></trkpt><trkpt lat="45.1645755" lon="11.7117878"><ele>3.0</ele><time>2026-04-19T06:59:53.063Z</time></trkpt><trkpt lat="45.1646588" lon="11.7117408"><ele>3.0</ele><time>2026-04-19T06:59:56.073Z</time></trkpt><trkpt lat="45.1647502" lon="11.7116985"><ele>3.0</ele><time>2026-04-19T06:59:59.576Z</time></trkpt><trkpt lat="45.1649481" lon="11.7115902"><ele>3.0</ele><time>2026-04-19T07:00:06.608Z</time></trkpt><trkpt lat="45.1650279" lon="11.7115636"><ele>3.0</ele><time>2026-04-19T07:00:09.731Z</time></trkpt><trkpt lat="45.1650798" lon="11.7114698"><ele>3.0</ele><time>2026-04-19T07:00:11.761Z</time></trkpt><trkpt lat="45.1651442" lon="11.7113875"><ele>3.0</ele><time>2026-04-19T07:00:14.802Z</time></trkpt><trkpt lat="45.1652343" lon="11.7113648"><ele>3.0</ele><time>2026-04-19T07:00:17.783Z</time></trkpt><trkpt lat="45.1653065" lon="11.71138"><ele>3.0</ele><time>2026-04-19T07:00:19.82Z</time></trkpt><trkpt lat="45.165377" lon="11.7113643"><ele>3.0</ele><time>2026-04-19T07:00:22.156Z</time></trkpt><trkpt lat="45.1654584" lon="11.71132"><ele>3.0</ele><time>2026-04-19T07:00:25.139Z</time></trkpt><trkpt lat="45.1655323" lon="11.7112458"><ele>3.0</ele><time>2026-04-19T07:00:28.185Z</time></trkpt><trkpt lat="45.165585" lon="11.71119"><ele>3.0</ele><time>2026-04-19T07:00:30.274Z</time></trkpt><trkpt lat="45.1656611" lon="11.7111317"><ele>3.0</ele><time>2026-04-19T07:00:33.261Z</time></trkpt><trkpt lat="45.1657352" lon="11.7110775"><ele>3.0</ele><time>2026-04-19T07:00:36.161Z</time></trkpt><trkpt lat="45.1657898" lon="11.7110318"><ele>3.0</ele><time>2026-04-19T07:00:38.323Z</time></trkpt><trkpt lat="45.1658513" lon="11.7109364"><ele>3.0</ele><time>2026-04-19T07:00:41.537Z</time></trkpt><trkpt lat="45.1659183" lon="11.7108513"><ele>3.0</ele><time>2026-04-19T07:00:44.684Z</time></trkpt><trkpt lat="45.1660035" lon="11.7107736"><ele>3.0</ele><time>2026-04-19T07:00:48.556Z</time></trkpt><trkpt lat="45.1661135" lon="11.7106596"><ele>3.0</ele><time>2026-04-19T07:00:54.22Z</time></trkpt><trkpt lat="45.1672673" lon="11.7107768"><ele>5.0</ele><time>2026-04-19T07:01:02.629Z</time></trkpt><trkpt lat="45.1677463" lon="11.7108253"><ele>3.0</ele><time>2026-04-19T07:01:09.685Z</time></trkpt><trkpt lat="45.1676831" lon="11.7097731"><ele>3.0</ele><time>2026-04-19T07:01:58.718Z</time></trkpt><trkpt lat="45.1679236" lon="11.7096286"><ele>3.0</ele><time>2026-04-19T07:02:05.726Z</time></trkpt><trkpt lat="45.1681802" lon="11.7095688"><ele>3.666666666666667</ele><time>2026-04-19T07:02:12.607Z</time></trkpt><trkpt lat="45.1684598" lon="11.7093754"><ele>4.333333333333334</ele><time>2026-04-19T07:02:19.585Z</time></trkpt><trkpt lat="45.1684531" lon="11.709492"><ele>5.0</ele><time>2026-04-19T07:02:21.668Z</time></trkpt><trkpt lat="45.1685115" lon="11.7095555"><ele>5.0</ele><time>2026-04-19T07:02:23.684Z</time></trkpt><trkpt lat="45.1685942" lon="11.7096029"><ele>5.0</ele><time>2026-04-19T07:02:27.071Z</time></trkpt><trkpt lat="45.1686595" lon="11.7094784"><ele>5.0</ele><time>2026-04-19T07:02:29.079Z</time></trkpt><trkpt lat="45.1687437" lon="11.7094702"><ele>5.0</ele><time>2026-04-19T07:02:32.105Z</time></trkpt><trkpt lat="45.1688287" lon="11.7094835"><ele>5.0</ele><time>2026-04-19T07:02:35.199Z</time></trkpt><trkpt lat="45.1689189" lon="11.7094926"><ele>5.0</ele><time>2026-04-19T07:02:38.267Z</time></trkpt><trkpt lat="45.1689946" lon="11.7094764"><ele>5.0</ele><time>2026-04-19T07:02:41.097Z</time></trkpt><trkpt lat="45.169072" lon="11.7094729"><ele>5.0</ele><time>2026-04-19T07:02:43.94Z</time></trkpt><trkpt lat="45.1691496" lon="11.7094715"><ele>5.0</ele><time>2026-04-19T07:02:47.119Z</time></trkpt><trkpt lat="45.1692378" lon="11.7094765"><ele>5.0</ele><time>2026-04-19T07:02:50.03Z</time></trkpt><trkpt lat="45.16932" lon="11.7094715"><ele>5.0</ele><time>2026-04-19T07:02:53.019Z</time></trkpt><trkpt lat="45.1694011" lon="11.7094386"><ele>4.75</ele><time>2026-04-19T07:02:56.067Z</time></trkpt><trkpt lat="45.1694826" lon="11.709424"><ele>4.5</ele><time>2026-04-19T07:02:59.07Z</time></trkpt><trkpt lat="45.1695793" lon="11.7094144"><ele>4.25</ele><time>2026-04-19T07:03:02.104Z</time></trkpt><trkpt lat="45.1696524" lon="11.7094287"><ele>4.0</ele><time>2026-04-19T07:03:05.101Z</time></trkpt><trkpt lat="45.1699414" lon="11.7094434"><ele>4.0</ele><time>2026-04-19T07:03:15.616Z</time></trkpt><trkpt lat="45.1701719" lon="11.7094534"><ele>4.0</ele><time>2026-04-19T07:03:22.59Z</time></trkpt><trkpt lat="45.1703433" lon="11.7094551"><ele>4.0</ele><time>2026-04-19T07:03:28.216Z</time></trkpt><trkpt lat="45.1704708" lon="11.7094961"><ele>4.0</ele><time>2026-04-19T07:03:43.591Z</time></trkpt><trkpt lat="45.1706008" lon="11.7092594"><ele>4.0</ele><time>2026-04-19T07:03:44.77Z</time></trkpt><trkpt lat="45.1706612" lon="11.7092225"><ele>4.0</ele><time>2026-04-19T07:03:45.784Z</time></trkpt><trkpt lat="45.1707108" lon="11.7092873"><ele>4.0</ele><time>2026-04-19T07:03:48.102Z</time></trkpt><trkpt lat="45.1707761" lon="11.7093749"><ele>4.0</ele><time>2026-04-19T07:03:51.158Z</time></trkpt><trkpt lat="45.1708332" lon="11.709465"><ele>4.333333333333333</ele><time>2026-04-19T07:03:54.154Z</time></trkpt><trkpt lat="45.1708906" lon="11.7095567"><ele>4.666666666666666</ele><time>2026-04-19T07:03:57.16Z</time></trkpt><trkpt lat="45.170948" lon="11.7096576"><ele>5.0</ele><time>2026-04-19T07:04:00.123Z</time></trkpt><trkpt lat="45.1710055" lon="11.7097636"><ele>5.333333333333333</ele><time>2026-04-19T07:04:03.158Z</time></trkpt><trkpt lat="45.171055" lon="11.709864"><ele>5.666666666666667</ele><time>2026-04-19T07:04:06.078Z</time></trkpt><trkpt lat="45.1711138" lon="11.7099579"><ele>6.0</ele><time>2026-04-19T07:04:09.253Z</time></trkpt><trkpt lat="45.1711665" lon="11.7100547"><ele>6.0</ele><time>2026-04-19T07:04:12.1Z</time></trkpt><trkpt lat="45.1712237" lon="11.7101493"><ele>6.0</ele><time>2026-04-19T07:04:15.056Z</time></trkpt><trkpt lat="45.1712735" lon="11.7102484"><ele>6.0</ele><time>2026-04-19T07:04:18.123Z</time></trkpt><trkpt lat="45.1716168" lon="11.7090001"><ele>5.6</ele><time>2026-04-19T07:04:19.108Z</time></trkpt><trkpt lat="45.1717028" lon="11.7089521"><ele>5.199999999999999</ele><time>2026-04-19T07:04:21.079Z</time></trkpt><trkpt lat="45.1718689" lon="11.7089381"><ele>4.800000000000001</ele><time>2026-04-19T07:04:25.131Z</time></trkpt><trkpt lat="45.1719531" lon="11.7089159"><ele>4.4</ele><time>2026-04-19T07:04:28.087Z</time></trkpt><trkpt lat="45.172038" lon="11.7088691"><ele>4.0</ele><time>2026-04-19T07:04:30.95Z</time></trkpt><trkpt lat="45.1721251" lon="11.7088575"><ele>3.9999999999999996</ele><time>2026-04-19T07:04:34.037Z</time></trkpt><trkpt lat="45.1722123" lon="11.7088269"><ele>4.0</ele><time>2026-04-19T07:04:36.983Z</time></trkpt><trkpt lat="45.1722966" lon="11.7088025"><ele>4.0</ele><time>2026-04-19T07:04:40.05Z</time></trkpt><trkpt lat="45.1723754" lon="11.7087643"><ele>4.0</ele><time>2026-04-19T07:04:43.026Z</time></trkpt><trkpt lat="45.172463" lon="11.7087378"><ele>3.9999999999999996</ele><time>2026-04-19T07:04:46.091Z</time></trkpt><trkpt lat="45.172545" lon="11.7087092"><ele>4.0</ele><time>2026-04-19T07:04:49.161Z</time></trkpt><trkpt lat="45.1727332" lon="11.7086616"><ele>4.0</ele><time>2026-04-19T07:04:59.193Z</time></trkpt><trkpt lat="45.1728612" lon="11.7089751"><ele>4.0</ele><time>2026-04-19T07:05:07.618Z</time></trkpt><trkpt lat="45.1729302" lon="11.7094176"><ele>4.0</ele><time>2026-04-19T07:05:14.611Z</time></trkpt><trkpt lat="45.1728001" lon="11.7095009"><ele>4.0</ele><time>2026-04-19T07:05:21.632Z</time></trkpt><trkpt lat="45.1726869" lon="11.7094817"><ele>4.0</ele><time>2026-04-19T07:05:27.217Z</time></trkpt><trkpt lat="45.1724771" lon="11.7096706"><ele>4.0</ele><time>2026-04-19T07:05:35.576Z</time></trkpt><trkpt lat="45.1723687" lon="11.7097426"><ele>4.0</ele><time>2026-04-19T07:05:41.203Z</time></trkpt><trkpt lat="45.1725042" lon="11.7101634"><ele>4.0</ele><time>2026-04-19T07:05:49.668Z</time></trkpt><trkpt lat="45.1747569" lon="11.7088403"><ele>3.9999999999999996</ele><time>2026-04-19T07:05:56.593Z</time></trkpt><trkpt lat="45.1746998" lon="11.7087762"><ele>4.0</ele><time>2026-04-19T07:06:11.72Z</time></trkpt><trkpt lat="45.1747938" lon="11.7087868"><ele>4.0</ele><time>2026-04-19T07:06:14.765Z</time></trkpt><trkpt lat="45.1748791" lon="11.7087561"><ele>4.0</ele><time>2026-04-19T07:06:17.76Z</time></trkpt><trkpt lat="45.1749642" lon="11.7087439"><ele>3.9999999999999996</ele><time>2026-04-19T07:06:20.801Z</time></trkpt><trkpt lat="45.175029" lon="11.7087438"><ele>4.0</ele><time>2026-04-19T07:06:23.12Z</time></trkpt><trkpt lat="45.1751075" lon="11.7087817"><ele>3.9999999999999996</ele><time>2026-04-19T07:06:26.161Z</time></trkpt><trkpt lat="45.1751822" lon="11.7088009"><ele>4.0</ele><time>2026-04-19T07:06:29.153Z</time></trkpt><trkpt lat="45.1752641" lon="11.7088226"><ele>4.0</ele><time>2026-04-19T07:06:32.189Z</time></trkpt><trkpt lat="45.1753521" lon="11.7088407"><ele>4.0</ele><time>2026-04-19T07:06:35.197Z</time></trkpt><trkpt lat="45.1754423" lon="11.708865"><ele>3.9999999999999996</ele><time>2026-04-19T07:06:38.089Z</time></trkpt><trkpt lat="45.1755306" lon="11.7088929"><ele>4.0</ele><time>2026-04-19T07:06:41.155Z</time></trkpt><trkpt lat="45.1756143" lon="11.7089235"><ele>3.9999999999999996</ele><time>2026-04-19T07:06:44.161Z</time></trkpt><trkpt lat="45.1757025" lon="11.7089309"><ele>4.0</ele><time>2026-04-19T07:06:47.069Z</time></trkpt><trkpt lat="45.1757921" lon="11.7089229"><ele>4.0</ele><time>2026-04-19T07:06:50.134Z</time></trkpt><trkpt lat="45.1758738" lon="11.7089443"><ele>4.0</ele><time>2026-04-19T07:06:53.122Z</time></trkpt><trkpt lat="45.175955" lon="11.7089608"><ele>3.9999999999999996</ele><time>2026-04-19T07:06:56.124Z</time></trkpt><trkpt lat="45.1760366" lon="11.7090015"><ele>4.0</ele><time>2026-04-19T07:06:59.12Z</time></trkpt><trkpt lat="45.1761193" lon="11.7090235"><ele>3.9999999999999996</ele><time>2026-04-19T07:07:02.151Z</time></trkpt><trkpt lat="45.1762028" lon="11.7090102"><ele>4.0</ele><time>2026-04-19T07:07:05.161Z</time></trkpt><trkpt lat="45.1762767" lon="11.7089845"><ele>4.0</ele><time>2026-04-19T07:07:08.138Z</time></trkpt><trkpt lat="45.1763614" lon="11.7089923"><ele>4.0</ele><time>2026-04-19T07:07:11.124Z</time></trkpt><trkpt lat="45.1764482" lon="11.7089958"><ele>3.9999999999999996</ele><time>2026-04-19T07:07:14.15Z</time></trkpt><trkpt lat="45.1765318" lon="11.7090076"><ele>4.0</ele><time>2026-04-19T07:07:17.103Z</time></trkpt><trkpt lat="45.1766209" lon="11.7090358"><ele>3.9999999999999996</ele><time>2026-04-19T07:07:20.084Z</time></trkpt><trkpt lat="45.1767105" lon="11.7090625"><ele>4.0</ele><time>2026-04-19T07:07:23.066Z</time></trkpt><trkpt lat="45.1767963" lon="11.7090771"><ele>4.0</ele><time>2026-04-19T07:07:26.066Z</time></trkpt><trkpt lat="45.1768868" lon="11.7090796"><ele>4.0</ele><time>2026-04-19T07:07:29.063Z</time></trkpt><trkpt lat="45.176969" lon="11.7090896"><ele>3.9999999999999996</ele><time>2026-04-19T07:07:32.09Z</time></trkpt><trkpt lat="45.1770538" lon="11.7090904"><ele>4.0</ele><time>2026-04-19T07:07:35.078Z</time></trkpt><trkpt lat="45.1771418" lon="11.7090842"><ele>4.0</ele><time>2026-04-19T07:07:38.089Z</time></trkpt><trkpt lat="45.1772085" lon="11.7090942"><ele>4.0</ele><time>2026-04-19T07:07:40.127Z</time></trkpt><trkpt lat="45.1772954" lon="11.7091128"><ele>4.0</ele><time>2026-04-19T07:07:43.103Z</time></trkpt><trkpt lat="45.177522" lon="11.7091859"><ele>4.0</ele><time>2026-04-19T07:07:52.232Z</time></trkpt><trkpt lat="45.179441" lon="11.7087259"><ele>3.0</ele><time>2026-04-19T07:09:16.621Z</time></trkpt><trkpt lat="45.1789427" lon="11.7072102"><ele>3.0</ele><time>2026-04-19T07:09:37.609Z</time></trkpt><trkpt lat="45.178864" lon="11.7070584"><ele>3.0</ele><time>2026-04-19T07:09:42.574Z</time></trkpt><trkpt lat="45.1788146" lon="11.7069683"><ele>3.0</ele><time>2026-04-19T07:09:49.222Z</time></trkpt><trkpt lat="45.1810675" lon="11.704249"><ele>3.0</ele><time>2026-04-19T07:11:07.564Z</time></trkpt><trkpt lat="45.1797316" lon="11.7009507"><ele>4.0</ele><time>2026-04-19T07:12:10.546Z</time></trkpt><trkpt lat="45.1780534" lon="11.6849393"><ele>6.0</ele><time>2026-04-19T07:19:31.727Z</time></trkpt><trkpt lat="45.1788982" lon="11.6831941"><ele>6.0</ele><time>2026-04-19T07:20:47.227Z</time></trkpt><trkpt lat="45.1789529" lon="11.683081"><ele>6.0</ele><time>2026-04-19T07:20:54.216Z</time></trkpt><trkpt lat="45.1783583" lon="11.682733"><ele>5.0</ele><time>2026-04-19T07:21:02.659Z</time></trkpt><trkpt lat="45.1777874" lon="11.6825157"><ele>5.0</ele><time>2026-04-19T07:21:09.743Z</time></trkpt><trkpt lat="45.1778792" lon="11.6823929"><ele>5.0</ele><time>2026-04-19T07:21:10.663Z</time></trkpt><trkpt lat="45.177815" lon="11.6823823"><ele>5.0</ele><time>2026-04-19T07:21:14.621Z</time></trkpt><trkpt lat="45.1777255" lon="11.6823845"><ele>5.0</ele><time>2026-04-19T07:21:17.651Z</time></trkpt><trkpt lat="45.1776346" lon="11.682333"><ele>5.0</ele><time>2026-04-19T07:21:20.987Z</time></trkpt><trkpt lat="45.1775807" lon="11.682283"><ele>5.0</ele><time>2026-04-19T07:21:22.942Z</time></trkpt><trkpt lat="45.1775327" lon="11.6821957"><ele>5.0</ele><time>2026-04-19T07:21:24.928Z</time></trkpt><trkpt lat="45.1774816" lon="11.6821338"><ele>5.0</ele><time>2026-04-19T07:21:26.891Z</time></trkpt><trkpt lat="45.17731" lon="11.6819639"><ele>5.0</ele><time>2026-04-19T07:21:35.222Z</time></trkpt><trkpt lat="45.1774233" lon="11.6821254"><ele>5.0</ele><time>2026-04-19T07:21:49.215Z</time></trkpt><trkpt lat="45.1776204" lon="11.6823535"><ele>5.0</ele><time>2026-04-19T07:21:56.222Z</time></trkpt><trkpt lat="45.177747" lon="11.6824861"><ele>5.0</ele><time>2026-04-19T07:22:17.221Z</time></trkpt><trkpt lat="45.1765927" lon="11.6769402"><ele>4.0</ele><time>2026-04-19T07:23:00.843Z</time></trkpt><trkpt lat="45.1732744" lon="11.6819053"><ele>4.0</ele><time>2026-04-19T07:23:14.601Z</time></trkpt><trkpt lat="45.1723246" lon="11.6800811"><ele>4.0</ele><time>2026-04-19T07:24:10.733Z</time></trkpt><trkpt lat="45.1724226" lon="11.6803158"><ele>4.0</ele><time>2026-04-19T07:24:25.788Z</time></trkpt><trkpt lat="45.1723274" lon="11.6802616"><ele>4.0</ele><time>2026-04-19T07:24:28.78Z</time></trkpt><trkpt lat="45.1722896" lon="11.680171"><ele>4.0</ele><time>2026-04-19T07:24:31.09Z</time></trkpt><trkpt lat="45.1722667" lon="11.6800523"><ele>3.9999999999999996</ele><time>2026-04-19T07:24:34.086Z</time></trkpt><trkpt lat="45.1722417" lon="11.6799355"><ele>4.0</ele><time>2026-04-19T07:24:37.051Z</time></trkpt><trkpt lat="45.1722306" lon="11.6798277"><ele>4.0</ele><time>2026-04-19T07:24:40.04Z</time></trkpt><trkpt lat="45.1722236" lon="11.6797387"><ele>4.0</ele><time>2026-04-19T07:24:42.06Z</time></trkpt><trkpt lat="45.1722216" lon="11.6796057"><ele>3.9999999999999996</ele><time>2026-04-19T07:24:45.005Z</time></trkpt><trkpt lat="45.1722236" lon="11.6795035"><ele>4.0</ele><time>2026-04-19T07:24:48.007Z</time></trkpt><trkpt lat="45.1724254" lon="11.6802299"><ele>3.75</ele><time>2026-04-19T07:24:48.977Z</time></trkpt><trkpt lat="45.1724248" lon="11.6803314"><ele>3.5</ele><time>2026-04-19T07:24:55.972Z</time></trkpt><trkpt lat="45.1724491" lon="11.6804328"><ele>3.25</ele><time>2026-04-19T07:24:59.929Z</time></trkpt><trkpt lat="45.1724456" lon="11.6805688"><ele>3.0</ele><time>2026-04-19T07:25:06.845Z</time></trkpt><trkpt lat="45.1718499" lon="11.6785278"><ele>3.333333333333333</ele><time>2026-04-19T07:25:33.225Z</time></trkpt><trkpt lat="45.1717592" lon="11.6781994"><ele>3.6666666666666665</ele><time>2026-04-19T07:25:40.225Z</time></trkpt><trkpt lat="45.1717336" lon="11.6780812"><ele>4.0</ele><time>2026-04-19T07:25:47.218Z</time></trkpt><trkpt lat="45.1714814" lon="11.6768372"><ele>4.0</ele><time>2026-04-19T07:25:55.537Z</time></trkpt><trkpt lat="45.1714141" lon="11.676295"><ele>4.0</ele><time>2026-04-19T07:26:02.619Z</time></trkpt><trkpt lat="45.1714042" lon="11.6760877"><ele>3.9999999999999996</ele><time>2026-04-19T07:26:09.609Z</time></trkpt><trkpt lat="45.1713178" lon="11.6761182"><ele>4.0</ele><time>2026-04-19T07:26:18.7Z</time></trkpt><trkpt lat="45.1712893" lon="11.6760073"><ele>4.0</ele><time>2026-04-19T07:26:20.681Z</time></trkpt><trkpt lat="45.1712669" lon="11.6758891"><ele>4.0</ele><time>2026-04-19T07:26:23.586Z</time></trkpt><trkpt lat="45.1712814" lon="11.6757962"><ele>3.9999999999999996</ele><time>2026-04-19T07:26:25.643Z</time></trkpt><trkpt lat="45.1713131" lon="11.6756655"><ele>4.0</ele><time>2026-04-19T07:26:28.62Z</time></trkpt><trkpt lat="45.1713628" lon="11.6755687"><ele>4.285714285714286</ele><time>2026-04-19T07:26:30.62Z</time></trkpt><trkpt lat="45.1713982" lon="11.6754864"><ele>4.571428571428571</ele><time>2026-04-19T07:26:32.622Z</time></trkpt><trkpt lat="45.1714301" lon="11.6753642"><ele>4.857142857142857</ele><time>2026-04-19T07:26:35.584Z</time></trkpt><trkpt lat="45.171452" lon="11.6752799"><ele>5.142857142857142</ele><time>2026-04-19T07:26:37.585Z</time></trkpt><trkpt lat="45.1714721" lon="11.6751868"><ele>5.428571428571429</ele><time>2026-04-19T07:26:39.924Z</time></trkpt><trkpt lat="45.1714955" lon="11.6751025"><ele>5.7142857142857135</ele><time>2026-04-19T07:26:41.916Z</time></trkpt><trkpt lat="45.1715202" lon="11.6750152"><ele>6.0</ele><time>2026-04-19T07:26:44.063Z</time></trkpt><trkpt lat="45.1715433" lon="11.674924"><ele>6.0</ele><time>2026-04-19T07:26:46.249Z</time></trkpt><trkpt lat="45.1715776" lon="11.6748089"><ele>6.0</ele><time>2026-04-19T07:26:49.101Z</time></trkpt><trkpt lat="45.1716093" lon="11.6747312"><ele>6.0</ele><time>2026-04-19T07:26:51.178Z</time></trkpt><trkpt lat="45.1716476" lon="11.6746187"><ele>6.0</ele><time>2026-04-19T07:26:54.124Z</time></trkpt><trkpt lat="45.1716802" lon="11.6744975"><ele>6.0</ele><time>2026-04-19T07:26:57.136Z</time></trkpt><trkpt lat="45.1717229" lon="11.6743885"><ele>6.0</ele><time>2026-04-19T07:27:00.118Z</time></trkpt><trkpt lat="45.1717627" lon="11.6742809"><ele>6.0</ele><time>2026-04-19T07:27:03.124Z</time></trkpt><trkpt lat="45.1717976" lon="11.6741769"><ele>6.0</ele><time>2026-04-19T07:27:06.08Z</time></trkpt><trkpt lat="45.1718313" lon="11.6740622"><ele>6.0</ele><time>2026-04-19T07:27:09.121Z</time></trkpt><trkpt lat="45.1718679" lon="11.6739382"><ele>6.0</ele><time>2026-04-19T07:27:12.095Z</time></trkpt><trkpt lat="45.171894" lon="11.6738185"><ele>6.0</ele><time>2026-04-19T07:27:15.054Z</time></trkpt><trkpt lat="45.1719038" lon="11.6737275"><ele>6.0</ele><time>2026-04-19T07:27:17.161Z</time></trkpt><trkpt lat="45.1718983" lon="11.6736012"><ele>6.0</ele><time>2026-04-19T07:27:20.198Z</time></trkpt><trkpt lat="45.1718925" lon="11.673512"><ele>6.0</ele><time>2026-04-19T07:27:22.369Z</time></trkpt><trkpt lat="45.1718714" lon="11.6733996"><ele>6.0</ele><time>2026-04-19T07:27:25.371Z</time></trkpt><trkpt lat="45.1718187" lon="11.6733265"><ele>6.0</ele><time>2026-04-19T07:27:28.398Z</time></trkpt><trkpt lat="45.171741" lon="11.6732681"><ele>6.0</ele><time>2026-04-19T07:27:31.39Z</time></trkpt><trkpt lat="45.1716587" lon="11.6732125"><ele>6.0</ele><time>2026-04-19T07:27:34.407Z</time></trkpt><trkpt lat="45.1715801" lon="11.6731547"><ele>6.166666666666667</ele><time>2026-04-19T07:27:37.392Z</time></trkpt><trkpt lat="45.1715183" lon="11.6730981"><ele>6.333333333333334</ele><time>2026-04-19T07:27:39.716Z</time></trkpt><trkpt lat="45.1714426" lon="11.6730279"><ele>6.5</ele><time>2026-04-19T07:27:42.727Z</time></trkpt><trkpt lat="45.1713734" lon="11.67295"><ele>6.666666666666667</ele><time>2026-04-19T07:27:45.728Z</time></trkpt><trkpt lat="45.1713005" lon="11.6728543"><ele>6.833333333333334</ele><time>2026-04-19T07:27:49.009Z</time></trkpt><trkpt lat="45.1712317" lon="11.6727836"><ele>7.0</ele><time>2026-04-19T07:27:51.99Z</time></trkpt><trkpt lat="45.171159" lon="11.6727138"><ele>7.000000000000001</ele><time>2026-04-19T07:27:55.128Z</time></trkpt><trkpt lat="45.1710902" lon="11.6726395"><ele>7.0</ele><time>2026-04-19T07:27:58.161Z</time></trkpt><trkpt lat="45.1710113" lon="11.6725813"><ele>7.0</ele><time>2026-04-19T07:28:01.281Z</time></trkpt><trkpt lat="45.1709359" lon="11.6725187"><ele>7.0</ele><time>2026-04-19T07:28:04.284Z</time></trkpt><trkpt lat="45.1708538" lon="11.6724557"><ele>7.000000000000001</ele><time>2026-04-19T07:28:07.623Z</time></trkpt><trkpt lat="45.170796" lon="11.6724148"><ele>7.0</ele><time>2026-04-19T07:28:09.938Z</time></trkpt><trkpt lat="45.1707383" lon="11.672371"><ele>6.833333333333334</ele><time>2026-04-19T07:28:12.101Z</time></trkpt><trkpt lat="45.1706721" lon="11.6723191"><ele>6.666666666666667</ele><time>2026-04-19T07:28:15.27Z</time></trkpt><trkpt lat="45.1706027" lon="11.6722312"><ele>6.5</ele><time>2026-04-19T07:28:18.262Z</time></trkpt><trkpt lat="45.1705468" lon="11.6721542"><ele>6.333333333333334</ele><time>2026-04-19T07:28:21.08Z</time></trkpt><trkpt lat="45.1704855" lon="11.6720538"><ele>6.166666666666667</ele><time>2026-04-19T07:28:24.145Z</time></trkpt><trkpt lat="45.1704535" lon="11.6719526"><ele>6.0</ele><time>2026-04-19T07:28:27.162Z</time></trkpt><trkpt lat="45.1705203" lon="11.671712"><ele>6.0</ele><time>2026-04-19T07:28:29.576Z</time></trkpt><trkpt lat="45.1706532" lon="11.671526"><ele>6.0</ele><time>2026-04-19T07:28:36.563Z</time></trkpt><trkpt lat="45.1708725" lon="11.6715178"><ele>6.0</ele><time>2026-04-19T07:28:43.59Z</time></trkpt><trkpt lat="45.1709008" lon="11.6713343"><ele>6.0</ele><time>2026-04-19T07:28:50.588Z</time></trkpt><trkpt lat="45.1710341" lon="11.6709856"><ele>6.0</ele><time>2026-04-19T07:28:57.576Z</time></trkpt><trkpt lat="45.1710866" lon="11.6707328"><ele>6.0</ele><time>2026-04-19T07:29:04.569Z</time></trkpt><trkpt lat="45.1710594" lon="11.670619"><ele>6.0</ele><time>2026-04-19T07:29:07.732Z</time></trkpt><trkpt lat="45.1711347" lon="11.6704908"><ele>6.0</ele><time>2026-04-19T07:29:09.77Z</time></trkpt><trkpt lat="45.1711715" lon="11.6703889"><ele>6.0</ele><time>2026-04-19T07:29:12.765Z</time></trkpt><trkpt lat="45.1712082" lon="11.6703156"><ele>6.0</ele><time>2026-04-19T07:29:15.054Z</time></trkpt><trkpt lat="45.1712594" lon="11.6702211"><ele>6.0</ele><time>2026-04-19T07:29:18.06Z</time></trkpt><trkpt lat="45.1713131" lon="11.6701272"><ele>6.0</ele><time>2026-04-19T07:29:21.041Z</time></trkpt><trkpt lat="45.1713646" lon="11.6700302"><ele>6.0</ele><time>2026-04-19T07:29:24.052Z</time></trkpt><trkpt lat="45.1714226" lon="11.6699495"><ele>6.0</ele><time>2026-04-19T07:29:27.01Z</time></trkpt><trkpt lat="45.1714789" lon="11.6698536"><ele>6.0</ele><time>2026-04-19T07:29:30.02Z</time></trkpt><trkpt lat="45.1715494" lon="11.6697764"><ele>6.0</ele><time>2026-04-19T07:29:33.012Z</time></trkpt><trkpt lat="45.1716144" lon="11.6697055"><ele>6.0</ele><time>2026-04-19T07:29:36.059Z</time></trkpt><trkpt lat="45.1716523" lon="11.6696195"><ele>6.0</ele><time>2026-04-19T07:29:38.984Z</time></trkpt><trkpt lat="45.1716981" lon="11.6695251"><ele>6.0</ele><time>2026-04-19T07:29:42.03Z</time></trkpt><trkpt lat="45.1717458" lon="11.6694191"><ele>6.0</ele><time>2026-04-19T07:29:45.164Z</time></trkpt><trkpt lat="45.1717745" lon="11.6693385"><ele>6.0</ele><time>2026-04-19T07:29:47.134Z</time></trkpt><trkpt lat="45.1718333" lon="11.669237"><ele>6.0</ele><time>2026-04-19T07:29:50.091Z</time></trkpt><trkpt lat="45.1718844" lon="11.6691372"><ele>6.0</ele><time>2026-04-19T07:29:53.157Z</time></trkpt><trkpt lat="45.1719281" lon="11.6690524"><ele>6.166666666666667</ele><time>2026-04-19T07:29:56.114Z</time></trkpt><trkpt lat="45.1719801" lon="11.6689603"><ele>6.333333333333334</ele><time>2026-04-19T07:29:59.071Z</time></trkpt><trkpt lat="45.1720206" lon="11.6688691"><ele>6.5</ele><time>2026-04-19T07:30:02.01Z</time></trkpt><trkpt lat="45.1720744" lon="11.6687572"><ele>6.666666666666667</ele><time>2026-04-19T07:30:05.093Z</time></trkpt><trkpt lat="45.1721283" lon="11.6686591"><ele>6.833333333333334</ele><time>2026-04-19T07:30:08.026Z</time></trkpt><trkpt lat="45.172191" lon="11.6685594"><ele>7.0</ele><time>2026-04-19T07:30:11.007Z</time></trkpt><trkpt lat="45.1722408" lon="11.6684494"><ele>7.166666666666667</ele><time>2026-04-19T07:30:14.03Z</time></trkpt><trkpt lat="45.1722831" lon="11.6683454"><ele>7.333333333333334</ele><time>2026-04-19T07:30:16.98Z</time></trkpt><trkpt lat="45.1723255" lon="11.6682776"><ele>7.5</ele><time>2026-04-19T07:30:18.995Z</time></trkpt><trkpt lat="45.1723906" lon="11.6681877"><ele>7.666666666666666</ele><time>2026-04-19T07:30:22.041Z</time></trkpt><trkpt lat="45.1724418" lon="11.6680901"><ele>7.833333333333333</ele><time>2026-04-19T07:30:25.043Z</time></trkpt><trkpt lat="45.1724793" lon="11.6679671"><ele>8.0</ele><time>2026-04-19T07:30:28.103Z</time></trkpt><trkpt lat="45.1724957" lon="11.6678795"><ele>7.999999999999999</ele><time>2026-04-19T07:30:30.095Z</time></trkpt><trkpt lat="45.1725109" lon="11.6677886"><ele>8.0</ele><time>2026-04-19T07:30:32.124Z</time></trkpt><trkpt lat="45.1724597" lon="11.6676793"><ele>8.0</ele><time>2026-04-19T07:30:35.181Z</time></trkpt><trkpt lat="45.1723823" lon="11.6676236"><ele>8.0</ele><time>2026-04-19T07:30:38.052Z</time></trkpt><trkpt lat="45.1723106" lon="11.6675586"><ele>7.999999999999999</ele><time>2026-04-19T07:30:41.267Z</time></trkpt><trkpt lat="45.1722312" lon="11.6674827"><ele>8.0</ele><time>2026-04-19T07:30:44.388Z</time></trkpt><trkpt lat="45.1721526" lon="11.6674148"><ele>7.999999999999999</ele><time>2026-04-19T07:30:47.2Z</time></trkpt><trkpt lat="45.1720927" lon="11.6673773"><ele>8.0</ele><time>2026-04-19T07:30:49.044Z</time></trkpt><trkpt lat="45.1720267" lon="11.6673347"><ele>8.0</ele><time>2026-04-19T07:30:51.839Z</time></trkpt><trkpt lat="45.1719787" lon="11.6672666"><ele>8.0</ele><time>2026-04-19T07:30:55.806Z</time></trkpt><trkpt lat="45.1720112" lon="11.6671834"><ele>7.999999999999999</ele><time>2026-04-19T07:31:03.126Z</time></trkpt><trkpt lat="45.1720893" lon="11.667238"><ele>8.0</ele><time>2026-04-19T07:32:30.003Z</time></trkpt><trkpt lat="45.1721696" lon="11.6672986"><ele>8.0</ele><time>2026-04-19T07:32:32.963Z</time></trkpt><trkpt lat="45.1722319" lon="11.6673444"><ele>8.0</ele><time>2026-04-19T07:32:35.161Z</time></trkpt><trkpt lat="45.1723173" lon="11.6673843"><ele>8.0</ele><time>2026-04-19T07:32:38.169Z</time></trkpt><trkpt lat="45.1723929" lon="11.6674464"><ele>8.0</ele><time>2026-04-19T07:32:41.126Z</time></trkpt><trkpt lat="45.1713155" lon="11.6665055"><ele>7.999999999999999</ele><time>2026-04-19T07:32:44.081Z</time></trkpt><trkpt lat="45.1713638" lon="11.6664224"><ele>8.0</ele><time>2026-04-19T07:32:47.991Z</time></trkpt><trkpt lat="45.1712955" lon="11.6663336"><ele>8.0</ele><time>2026-04-19T07:32:51.051Z</time></trkpt><trkpt lat="45.1712397" lon="11.6662892"><ele>8.0</ele><time>2026-04-19T07:32:53.037Z</time></trkpt><trkpt lat="45.1711639" lon="11.6662154"><ele>7.999999999999999</ele><time>2026-04-19T07:32:56.019Z</time></trkpt><trkpt lat="45.1710853" lon="11.6661514"><ele>8.0</ele><time>2026-04-19T07:32:59.065Z</time></trkpt><trkpt lat="45.1710154" lon="11.6660682"><ele>8.142857142857142</ele><time>2026-04-19T07:33:02.085Z</time></trkpt><trkpt lat="45.1709526" lon="11.666027"><ele>8.285714285714285</ele><time>2026-04-19T07:33:04.086Z</time></trkpt><trkpt lat="45.1708919" lon="11.6659904"><ele>8.428571428571429</ele><time>2026-04-19T07:33:06.087Z</time></trkpt><trkpt lat="45.1708356" lon="11.6659486"><ele>8.571428571428571</ele><time>2026-04-19T07:33:08.09Z</time></trkpt><trkpt lat="45.1707809" lon="11.6658894"><ele>8.714285714285715</ele><time>2026-04-19T07:33:10.051Z</time></trkpt><trkpt lat="45.1707254" lon="11.6658398"><ele>8.857142857142858</ele><time>2026-04-19T07:33:12.051Z</time></trkpt><trkpt lat="45.1706666" lon="11.6658031"><ele>9.0</ele><time>2026-04-19T07:33:14.126Z</time></trkpt><trkpt lat="45.1705865" lon="11.6657533"><ele>9.0</ele><time>2026-04-19T07:33:17.129Z</time></trkpt><trkpt lat="45.170515" lon="11.6656934"><ele>9.0</ele><time>2026-04-19T07:33:20.144Z</time></trkpt><trkpt lat="45.1704549" lon="11.6656163"><ele>9.0</ele><time>2026-04-19T07:33:23.063Z</time></trkpt><trkpt lat="45.1703903" lon="11.6655787"><ele>9.0</ele><time>2026-04-19T07:33:25.14Z</time></trkpt><trkpt lat="45.170335" lon="11.6655353"><ele>9.0</ele><time>2026-04-19T07:33:27.115Z</time></trkpt><trkpt lat="45.1702555" lon="11.6654758"><ele>9.0</ele><time>2026-04-19T07:33:30.161Z</time></trkpt><trkpt lat="45.1701822" lon="11.6654178"><ele>9.0</ele><time>2026-04-19T07:33:33.138Z</time></trkpt><trkpt lat="45.1701147" lon="11.6653504"><ele>9.0</ele><time>2026-04-19T07:33:36.094Z</time></trkpt><trkpt lat="45.1700424" lon="11.6652767"><ele>9.0</ele><time>2026-04-19T07:33:39.05Z</time></trkpt><trkpt lat="45.1699723" lon="11.6652075"><ele>9.0</ele><time>2026-04-19T07:33:42.117Z</time></trkpt><trkpt lat="45.1699116" lon="11.6651438"><ele>9.0</ele><time>2026-04-19T07:33:45.073Z</time></trkpt><trkpt lat="45.1698518" lon="11.6650927"><ele>9.0</ele><time>2026-04-19T07:33:48.022Z</time></trkpt><trkpt lat="45.1697805" lon="11.665034"><ele>8.666666666666666</ele><time>2026-04-19T07:33:51.024Z</time></trkpt><trkpt lat="45.1696992" lon="11.6649781"><ele>8.333333333333334</ele><time>2026-04-19T07:33:54.06Z</time></trkpt><trkpt lat="45.1696199" lon="11.6649162"><ele>8.0</ele><time>2026-04-19T07:33:57.101Z</time></trkpt><trkpt lat="45.1695435" lon="11.6648559"><ele>7.666666666666667</ele><time>2026-04-19T07:34:00.142Z</time></trkpt><trkpt lat="45.1694726" lon="11.6648006"><ele>7.333333333333334</ele><time>2026-04-19T07:34:03.173Z</time></trkpt><trkpt lat="45.1694046" lon="11.6647415"><ele>7.0</ele><time>2026-04-19T07:34:06.099Z</time></trkpt><trkpt lat="45.1693317" lon="11.6646912"><ele>7.000000000000001</ele><time>2026-04-19T07:34:09.164Z</time></trkpt><trkpt lat="45.1692518" lon="11.664642"><ele>7.0</ele><time>2026-04-19T07:34:12.121Z</time></trkpt><trkpt lat="45.1691744" lon="11.6645718"><ele>7.0</ele><time>2026-04-19T07:34:15.078Z</time></trkpt><trkpt lat="45.1691053" lon="11.6645021"><ele>7.0</ele><time>2026-04-19T07:34:18.161Z</time></trkpt><trkpt lat="45.1690314" lon="11.6644399"><ele>7.000000000000001</ele><time>2026-04-19T07:34:20.963Z</time></trkpt><trkpt lat="45.1689621" lon="11.6643744"><ele>7.0</ele><time>2026-04-19T07:34:23.696Z</time></trkpt><trkpt lat="45.1688804" lon="11.6642938"><ele>7.000000000000001</ele><time>2026-04-19T07:34:27.02Z</time></trkpt><trkpt lat="45.1688089" lon="11.6642126"><ele>7.0</ele><time>2026-04-19T07:34:30.03Z</time></trkpt><trkpt lat="45.1687391" lon="11.6641312"><ele>7.0</ele><time>2026-04-19T07:34:33.102Z</time></trkpt><trkpt lat="45.1686765" lon="11.6640565"><ele>7.0</ele><time>2026-04-19T07:34:36.161Z</time></trkpt><trkpt lat="45.1686196" lon="11.6639758"><ele>7.000000000000001</ele><time>2026-04-19T07:34:39.161Z</time></trkpt><trkpt lat="45.1685425" lon="11.6639132"><ele>7.0</ele><time>2026-04-19T07:34:42.125Z</time></trkpt><trkpt lat="45.1684698" lon="11.6638523"><ele>7.000000000000001</ele><time>2026-04-19T07:34:45.081Z</time></trkpt><trkpt lat="45.1683951" lon="11.6637843"><ele>7.0</ele><time>2026-04-19T07:34:48.162Z</time></trkpt><trkpt lat="45.1683179" lon="11.6637325"><ele>7.0</ele><time>2026-04-19T07:34:51.161Z</time></trkpt><trkpt lat="45.1682393" lon="11.6636738"><ele>7.0</ele><time>2026-04-19T07:34:54.264Z</time></trkpt><trkpt lat="45.1681821" lon="11.6636226"><ele>7.000000000000001</ele><time>2026-04-19T07:34:56.63Z</time></trkpt><trkpt lat="45.1681134" lon="11.6635626"><ele>7.0</ele><time>2026-04-19T07:34:59.622Z</time></trkpt><trkpt lat="45.1680397" lon="11.6635094"><ele>6.833333333333334</ele><time>2026-04-19T07:35:02.709Z</time></trkpt><trkpt lat="45.1679705" lon="11.6634425"><ele>6.666666666666667</ele><time>2026-04-19T07:35:05.684Z</time></trkpt><trkpt lat="45.1678989" lon="11.6633648"><ele>6.5</ele><time>2026-04-19T07:35:08.75Z</time></trkpt><trkpt lat="45.1678461" lon="11.6632899"><ele>6.333333333333334</ele><time>2026-04-19T07:35:11.079Z</time></trkpt><trkpt lat="45.1677844" lon="11.663193"><ele>6.166666666666667</ele><time>2026-04-19T07:35:14.142Z</time></trkpt><trkpt lat="45.1677448" lon="11.6631197"><ele>6.0</ele><time>2026-04-19T07:35:16.162Z</time></trkpt><trkpt lat="45.167686" lon="11.6630278"><ele>6.0</ele><time>2026-04-19T07:35:19.136Z</time></trkpt><trkpt lat="45.1676248" lon="11.6629455"><ele>6.0</ele><time>2026-04-19T07:35:22.161Z</time></trkpt><trkpt lat="45.167574" lon="11.6628503"><ele>6.0</ele><time>2026-04-19T07:35:25.049Z</time></trkpt><trkpt lat="45.167522" lon="11.6627554"><ele>6.0</ele><time>2026-04-19T07:35:28.161Z</time></trkpt><trkpt lat="45.1674479" lon="11.6627066"><ele>6.0</ele><time>2026-04-19T07:35:30.989Z</time></trkpt><trkpt lat="45.1673785" lon="11.6626338"><ele>6.0</ele><time>2026-04-19T07:35:33.99Z</time></trkpt><trkpt lat="45.1673068" lon="11.6625519"><ele>6.166666666666667</ele><time>2026-04-19T07:35:37.161Z</time></trkpt><trkpt lat="45.1672429" lon="11.6624718"><ele>6.333333333333334</ele><time>2026-04-19T07:35:40.083Z</time></trkpt><trkpt lat="45.167184" lon="11.6623805"><ele>6.5</ele><time>2026-04-19T07:35:43.124Z</time></trkpt><trkpt lat="45.1671237" lon="11.6623018"><ele>6.666666666666667</ele><time>2026-04-19T07:35:46.12Z</time></trkpt><trkpt lat="45.1670532" lon="11.662218"><ele>6.833333333333334</ele><time>2026-04-19T07:35:49.139Z</time></trkpt><trkpt lat="45.1669838" lon="11.6621379"><ele>7.0</ele><time>2026-04-19T07:35:52.197Z</time></trkpt><trkpt lat="45.166924" lon="11.6620683"><ele>7.000000000000001</ele><time>2026-04-19T07:35:55.162Z</time></trkpt><trkpt lat="45.1668648" lon="11.6619853"><ele>7.0</ele><time>2026-04-19T07:35:58.161Z</time></trkpt><trkpt lat="45.1668071" lon="11.6619041"><ele>7.0</ele><time>2026-04-19T07:36:01.075Z</time></trkpt><trkpt lat="45.1667447" lon="11.6618276"><ele>7.0</ele><time>2026-04-19T07:36:04.03Z</time></trkpt><trkpt lat="45.1666812" lon="11.6617504"><ele>7.000000000000001</ele><time>2026-04-19T07:36:07.039Z</time></trkpt><trkpt lat="45.1666143" lon="11.6616706"><ele>7.0</ele><time>2026-04-19T07:36:10.106Z</time></trkpt><trkpt lat="45.166539" lon="11.6616007"><ele>6.833333333333334</ele><time>2026-04-19T07:36:13.111Z</time></trkpt><trkpt lat="45.16647" lon="11.6615143"><ele>6.666666666666667</ele><time>2026-04-19T07:36:16.172Z</time></trkpt><trkpt lat="45.1664239" lon="11.6614477"><ele>6.5</ele><time>2026-04-19T07:36:18.496Z</time></trkpt><trkpt lat="45.1663617" lon="11.6613571"><ele>6.333333333333334</ele><time>2026-04-19T07:36:21.551Z</time></trkpt><trkpt lat="45.1662963" lon="11.6612872"><ele>6.166666666666667</ele><time>2026-04-19T07:36:24.524Z</time></trkpt><trkpt lat="45.1662489" lon="11.6612256"><ele>6.0</ele><time>2026-04-19T07:36:26.859Z</time></trkpt><trkpt lat="45.1661779" lon="11.6611351"><ele>6.0</ele><time>2026-04-19T07:36:30.091Z</time></trkpt><trkpt lat="45.1661322" lon="11.6610688"><ele>6.0</ele><time>2026-04-19T07:36:32.062Z</time></trkpt><trkpt lat="45.1660595" lon="11.6609985"><ele>6.0</ele><time>2026-04-19T07:36:35.128Z</time></trkpt><trkpt lat="45.1659926" lon="11.6609172"><ele>6.0</ele><time>2026-04-19T07:36:38.161Z</time></trkpt><trkpt lat="45.1659149" lon="11.660828"><ele>6.0</ele><time>2026-04-19T07:36:41.252Z</time></trkpt><trkpt lat="45.1658528" lon="11.660735"><ele>6.0</ele><time>2026-04-19T07:36:44.107Z</time></trkpt><trkpt lat="45.1657964" lon="11.6606336"><ele>6.0</ele><time>2026-04-19T07:36:47.161Z</time></trkpt><trkpt lat="45.1657356" lon="11.6605392"><ele>6.0</ele><time>2026-04-19T07:36:50.129Z</time></trkpt><trkpt lat="45.1656763" lon="11.6604506"><ele>6.0</ele><time>2026-04-19T07:36:53.162Z</time></trkpt><trkpt lat="45.1656595" lon="11.6606132"><ele>6.0</ele><time>2026-04-19T07:36:55.638Z</time></trkpt><trkpt lat="45.1647278" lon="11.6593766"><ele>6.0</ele><time>2026-04-19T07:37:37.582Z</time></trkpt><trkpt lat="45.1629647" lon="11.6567015"><ele>7.0</ele><time>2026-04-19T07:38:47.597Z</time></trkpt><trkpt lat="45.1582613" lon="11.650248"><ele>7.0</ele><time>2026-04-19T07:42:43.547Z</time></trkpt><trkpt lat="45.1582556" lon="11.6501557"><ele>7.0</ele><time>2026-04-19T07:42:50.611Z</time></trkpt><trkpt lat="45.1583324" lon="11.6495586"><ele>7.0</ele><time>2026-04-19T07:43:04.028Z</time></trkpt><trkpt lat="45.1583303" lon="11.6493674"><ele>7.0</ele><time>2026-04-19T07:43:10.596Z</time></trkpt><trkpt lat="45.1584375" lon="11.6493452"><ele>7.0</ele><time>2026-04-19T07:43:17.614Z</time></trkpt><trkpt lat="45.1576853" lon="11.6474795"><ele>6.0</ele><time>2026-04-19T07:43:59.526Z</time></trkpt><trkpt lat="45.1573339" lon="11.6469584"><ele>6.333333333333334</ele><time>2026-04-19T07:44:06.575Z</time></trkpt><trkpt lat="45.1575974" lon="11.6471999"><ele>6.666666666666667</ele><time>2026-04-19T07:44:09.031Z</time></trkpt><trkpt lat="45.1576753" lon="11.6471745"><ele>7.0</ele><time>2026-04-19T07:44:12.107Z</time></trkpt><trkpt lat="45.1577554" lon="11.647156"><ele>7.0</ele><time>2026-04-19T07:44:15.068Z</time></trkpt><trkpt lat="45.1578453" lon="11.6471401"><ele>6.999999999999999</ele><time>2026-04-19T07:44:18.069Z</time></trkpt><trkpt lat="45.1579339" lon="11.6471157"><ele>6.999999999999999</ele><time>2026-04-19T07:44:21.093Z</time></trkpt><trkpt lat="45.1580228" lon="11.647093"><ele>7.0</ele><time>2026-04-19T07:44:24.111Z</time></trkpt><trkpt lat="45.15811" lon="11.6470751"><ele>7.0</ele><time>2026-04-19T07:44:27.073Z</time></trkpt><trkpt lat="45.1582005" lon="11.6470711"><ele>6.833333333333334</ele><time>2026-04-19T07:44:30.11Z</time></trkpt><trkpt lat="45.158324" lon="11.6470555"><ele>6.666666666666667</ele><time>2026-04-19T07:44:34.104Z</time></trkpt><trkpt lat="45.1584127" lon="11.6470163"><ele>6.5</ele><time>2026-04-19T07:44:37.076Z</time></trkpt><trkpt lat="45.1584745" lon="11.6469908"><ele>6.333333333333334</ele><time>2026-04-19T07:44:39.16Z</time></trkpt><trkpt lat="45.1585515" lon="11.6469271"><ele>6.166666666666667</ele><time>2026-04-19T07:44:42.083Z</time></trkpt><trkpt lat="45.1586067" lon="11.6468821"><ele>6.0</ele><time>2026-04-19T07:44:44.093Z</time></trkpt><trkpt lat="45.1586797" lon="11.6468257"><ele>6.0</ele><time>2026-04-19T07:44:47.041Z</time></trkpt><trkpt lat="45.1587417" lon="11.6467553"><ele>6.0</ele><time>2026-04-19T07:44:49.029Z</time></trkpt><trkpt lat="45.1587945" lon="11.6466746"><ele>6.0</ele><time>2026-04-19T07:44:52.087Z</time></trkpt><trkpt lat="45.1579189" lon="11.6467026"><ele>6.0</ele><time>2026-04-19T07:44:54.226Z</time></trkpt><trkpt lat="45.1574437" lon="11.6467952"><ele>6.0</ele><time>2026-04-19T07:45:02.806Z</time></trkpt><trkpt lat="45.156317" lon="11.6471936"><ele>6.0</ele><time>2026-04-19T07:45:09.8Z</time></trkpt><trkpt lat="45.1558731" lon="11.6473809"><ele>6.0</ele><time>2026-04-19T07:45:16.609Z</time></trkpt><trkpt lat="45.1557454" lon="11.6473493"><ele>6.0</ele><time>2026-04-19T07:45:23.572Z</time></trkpt><trkpt lat="45.1555175" lon="11.6468626"><ele>5.6</ele><time>2026-04-19T07:45:24.688Z</time></trkpt><trkpt lat="45.1553907" lon="11.6467051"><ele>5.199999999999999</ele><time>2026-04-19T07:45:25.654Z</time></trkpt><trkpt lat="45.1553531" lon="11.6465995"><ele>4.800000000000001</ele><time>2026-04-19T07:45:28.665Z</time></trkpt><trkpt lat="45.1553004" lon="11.6465319"><ele>4.4</ele><time>2026-04-19T07:45:31.661Z</time></trkpt><trkpt lat="45.1552584" lon="11.6464302"><ele>4.0</ele><time>2026-04-19T07:45:34.663Z</time></trkpt><trkpt lat="45.1552124" lon="11.6463041"><ele>3.9999999999999996</ele><time>2026-04-19T07:45:37.993Z</time></trkpt><trkpt lat="45.1551631" lon="11.6461934"><ele>4.0</ele><time>2026-04-19T07:45:41.046Z</time></trkpt><trkpt lat="45.155121" lon="11.6460929"><ele>4.0</ele><time>2026-04-19T07:45:43.956Z</time></trkpt><trkpt lat="45.1550847" lon="11.6459791"><ele>4.0</ele><time>2026-04-19T07:45:47.07Z</time></trkpt><trkpt lat="45.1550243" lon="11.6458805"><ele>3.9999999999999996</ele><time>2026-04-19T07:45:50.136Z</time></trkpt><trkpt lat="45.1549598" lon="11.6457947"><ele>4.0</ele><time>2026-04-19T07:45:53.162Z</time></trkpt><trkpt lat="45.1548953" lon="11.6457117"><ele>4.5</ele><time>2026-04-19T07:45:56.157Z</time></trkpt><trkpt lat="45.1548439" lon="11.6456224"><ele>5.0</ele><time>2026-04-19T07:45:59.114Z</time></trkpt><trkpt lat="45.154784" lon="11.6455352"><ele>5.5</ele><time>2026-04-19T07:46:02.07Z</time></trkpt><trkpt lat="45.1547334" lon="11.645436"><ele>6.0</ele><time>2026-04-19T07:46:05.136Z</time></trkpt><trkpt lat="45.1543217" lon="11.6461159"><ele>6.0</ele><time>2026-04-19T07:46:06.122Z</time></trkpt><trkpt lat="45.1542204" lon="11.6465261"><ele>6.0</ele><time>2026-04-19T07:46:07.161Z</time></trkpt><trkpt lat="45.1541638" lon="11.64657"><ele>6.0</ele><time>2026-04-19T07:46:09.243Z</time></trkpt><trkpt lat="45.1540817" lon="11.646608"><ele>6.166666666666667</ele><time>2026-04-19T07:46:12.242Z</time></trkpt><trkpt lat="45.1540017" lon="11.6465773"><ele>6.333333333333334</ele><time>2026-04-19T07:46:14.54Z</time></trkpt><trkpt lat="45.1539309" lon="11.6465483"><ele>6.5</ele><time>2026-04-19T07:46:16.879Z</time></trkpt><trkpt lat="45.1538688" lon="11.6464975"><ele>6.666666666666667</ele><time>2026-04-19T07:46:19.231Z</time></trkpt><trkpt lat="45.153821" lon="11.646423"><ele>6.833333333333334</ele><time>2026-04-19T07:46:21.255Z</time></trkpt><trkpt lat="45.1537694" lon="11.6463665"><ele>7.0</ele><time>2026-04-19T07:46:23.094Z</time></trkpt><trkpt lat="45.1536875" lon="11.6463156"><ele>7.000000000000001</ele><time>2026-04-19T07:46:26.161Z</time></trkpt><trkpt lat="45.1536276" lon="11.646265"><ele>7.0</ele><time>2026-04-19T07:46:28.132Z</time></trkpt><trkpt lat="45.1535393" lon="11.6462313"><ele>7.0</ele><time>2026-04-19T07:46:31.188Z</time></trkpt><trkpt lat="45.1534507" lon="11.6461892"><ele>7.0</ele><time>2026-04-19T07:46:34.1Z</time></trkpt><trkpt lat="45.1533889" lon="11.646166"><ele>7.000000000000001</ele><time>2026-04-19T07:46:36.127Z</time></trkpt><trkpt lat="45.1533016" lon="11.6461349"><ele>7.0</ele><time>2026-04-19T07:46:39.152Z</time></trkpt><trkpt lat="45.1532155" lon="11.646123"><ele>7.166666666666667</ele><time>2026-04-19T07:46:42.162Z</time></trkpt><trkpt lat="45.1531316" lon="11.6461106"><ele>7.333333333333334</ele><time>2026-04-19T07:46:45.164Z</time></trkpt><trkpt lat="45.1530657" lon="11.6460994"><ele>7.5</ele><time>2026-04-19T07:46:48.146Z</time></trkpt><trkpt lat="45.1529846" lon="11.6460704"><ele>7.666666666666666</ele><time>2026-04-19T07:46:51.169Z</time></trkpt><trkpt lat="45.1529035" lon="11.6460542"><ele>7.833333333333333</ele><time>2026-04-19T07:46:54.083Z</time></trkpt><trkpt lat="45.1528235" lon="11.6460871"><ele>8.0</ele><time>2026-04-19T07:46:57.039Z</time></trkpt><trkpt lat="45.1527563" lon="11.6460703"><ele>7.999999999999999</ele><time>2026-04-19T07:47:00.162Z</time></trkpt><trkpt lat="45.1526856" lon="11.6460676"><ele>8.0</ele><time>2026-04-19T07:47:03.062Z</time></trkpt><trkpt lat="45.1526113" lon="11.6460548"><ele>8.0</ele><time>2026-04-19T07:47:06.126Z</time></trkpt><trkpt lat="45.1525242" lon="11.6460361"><ele>8.0</ele><time>2026-04-19T07:47:09.083Z</time></trkpt><trkpt lat="45.1524319" lon="11.6460126"><ele>7.999999999999999</ele><time>2026-04-19T07:47:12.235Z</time></trkpt><trkpt lat="45.1523704" lon="11.6459879"><ele>8.0</ele><time>2026-04-19T07:47:14.242Z</time></trkpt><trkpt lat="45.1522961" lon="11.6459572"><ele>8.0</ele><time>2026-04-19T07:47:16.597Z</time></trkpt><trkpt lat="45.1522353" lon="11.6459306"><ele>7.999999999999999</ele><time>2026-04-19T07:47:18.641Z</time></trkpt><trkpt lat="45.1521702" lon="11.6458893"><ele>8.0</ele><time>2026-04-19T07:47:21.161Z</time></trkpt><trkpt lat="45.1521182" lon="11.645805"><ele>8.0</ele><time>2026-04-19T07:47:24.041Z</time></trkpt><trkpt lat="45.1520679" lon="11.6457463"><ele>7.999999999999999</ele><time>2026-04-19T07:47:28.135Z</time></trkpt><trkpt lat="45.1520008" lon="11.6457211"><ele>8.0</ele><time>2026-04-19T07:47:33.041Z</time></trkpt><trkpt lat="45.1519406" lon="11.645693"><ele>8.0</ele><time>2026-04-19T07:47:38.029Z</time></trkpt><trkpt lat="45.1518733" lon="11.6456957"><ele>7.999999999999999</ele><time>2026-04-19T07:47:45.108Z</time></trkpt><trkpt lat="45.1518093" lon="11.6456941"><ele>8.0</ele><time>2026-04-19T07:47:49.05Z</time></trkpt><trkpt lat="45.1517331" lon="11.6456865"><ele>8.0</ele><time>2026-04-19T07:47:52.023Z</time></trkpt><trkpt lat="45.1516503" lon="11.6456987"><ele>8.0</ele><time>2026-04-19T07:47:55.031Z</time></trkpt><trkpt lat="45.1515596" lon="11.6457017"><ele>7.999999999999999</ele><time>2026-04-19T07:47:58.075Z</time></trkpt><trkpt lat="45.1514685" lon="11.6456779"><ele>8.0</ele><time>2026-04-19T07:48:01.063Z</time></trkpt><trkpt lat="45.1513991" lon="11.6456526"><ele>7.999999999999999</ele><time>2026-04-19T07:48:03.031Z</time></trkpt><trkpt lat="45.1513328" lon="11.6456348"><ele>8.0</ele><time>2026-04-19T07:48:05.058Z</time></trkpt><trkpt lat="45.1512705" lon="11.6456161"><ele>8.0</ele><time>2026-04-19T07:48:07.059Z</time></trkpt><trkpt lat="45.1511782" lon="11.6456011"><ele>8.0</ele><time>2026-04-19T07:48:10.085Z</time></trkpt><trkpt lat="45.1511172" lon="11.6455745"><ele>7.999999999999999</ele><time>2026-04-19T07:48:12.089Z</time></trkpt><trkpt lat="45.1510576" lon="11.6455457"><ele>8.0</ele><time>2026-04-19T07:48:14.111Z</time></trkpt><trkpt lat="45.150964" lon="11.6454996"><ele>8.0</ele><time>2026-04-19T07:48:17.547Z</time></trkpt><trkpt lat="45.1508228" lon="11.6454456"><ele>8.0</ele><time>2026-04-19T07:48:23.212Z</time></trkpt><trkpt lat="45.1506986" lon="11.6454"><ele>8.0</ele><time>2026-04-19T07:48:30.221Z</time></trkpt><trkpt lat="45.1507659" lon="11.6454336"><ele>8.0</ele><time>2026-04-19T07:48:44.219Z</time></trkpt><trkpt lat="45.1498627" lon="11.6452229"><ele>5.0</ele><time>2026-04-19T07:48:52.526Z</time></trkpt><trkpt lat="45.1493501" lon="11.6451076"><ele>5.0</ele><time>2026-04-19T07:48:59.545Z</time></trkpt><trkpt lat="45.1490954" lon="11.6450466"><ele>5.0</ele><time>2026-04-19T07:49:06.605Z</time></trkpt><trkpt lat="45.1493313" lon="11.645249"><ele>5.166666666666667</ele><time>2026-04-19T07:49:14.747Z</time></trkpt><trkpt lat="45.1492961" lon="11.6453367"><ele>5.333333333333334</ele><time>2026-04-19T07:49:16.726Z</time></trkpt><trkpt lat="45.1491989" lon="11.6453562"><ele>5.5</ele><time>2026-04-19T07:49:18.749Z</time></trkpt><trkpt lat="45.1491124" lon="11.6453699"><ele>5.666666666666667</ele><time>2026-04-19T07:49:21.784Z</time></trkpt><trkpt lat="45.1490487" lon="11.6453479"><ele>5.833333333333333</ele><time>2026-04-19T07:49:23.811Z</time></trkpt><trkpt lat="45.1489709" lon="11.6453149"><ele>6.0</ele><time>2026-04-19T07:49:26.786Z</time></trkpt><trkpt lat="45.1489126" lon="11.6452724"><ele>6.0</ele><time>2026-04-19T07:49:28.797Z</time></trkpt><trkpt lat="45.1488532" lon="11.6452167"><ele>6.0</ele><time>2026-04-19T07:49:30.828Z</time></trkpt><trkpt lat="45.1487996" lon="11.645165"><ele>6.0</ele><time>2026-04-19T07:49:32.811Z</time></trkpt><trkpt lat="45.1487414" lon="11.6450964"><ele>6.0</ele><time>2026-04-19T07:49:35.187Z</time></trkpt><trkpt lat="45.1486547" lon="11.6450968"><ele>6.0</ele><time>2026-04-19T07:49:38.161Z</time></trkpt><trkpt lat="45.1485685" lon="11.6451033"><ele>6.0</ele><time>2026-04-19T07:49:41.159Z</time></trkpt><trkpt lat="45.1484884" lon="11.6450969"><ele>6.0</ele><time>2026-04-19T07:49:44.257Z</time></trkpt><trkpt lat="45.1484038" lon="11.6450708"><ele>6.0</ele><time>2026-04-19T07:49:47.264Z</time></trkpt><trkpt lat="45.1483191" lon="11.6450341"><ele>6.0</ele><time>2026-04-19T07:49:50.261Z</time></trkpt><trkpt lat="45.1482403" lon="11.6450159"><ele>6.0</ele><time>2026-04-19T07:49:53.162Z</time></trkpt><trkpt lat="45.1481597" lon="11.6450057"><ele>6.0</ele><time>2026-04-19T07:49:56.159Z</time></trkpt><trkpt lat="45.1480731" lon="11.6449871"><ele>6.0</ele><time>2026-04-19T07:49:59.116Z</time></trkpt><trkpt lat="45.1479971" lon="11.6449599"><ele>6.0</ele><time>2026-04-19T07:50:01.931Z</time></trkpt><trkpt lat="45.147913" lon="11.6449133"><ele>6.0</ele><time>2026-04-19T07:50:05.138Z</time></trkpt><trkpt lat="45.1478341" lon="11.6448895"><ele>6.0</ele><time>2026-04-19T07:50:08.095Z</time></trkpt><trkpt lat="45.1477481" lon="11.6448921"><ele>6.0</ele><time>2026-04-19T07:50:11.051Z</time></trkpt><trkpt lat="45.1476717" lon="11.6448785"><ele>6.0</ele><time>2026-04-19T07:50:13.965Z</time></trkpt><trkpt lat="45.1476009" lon="11.6448607"><ele>6.0</ele><time>2026-04-19T07:50:16.931Z</time></trkpt><trkpt lat="45.1475262" lon="11.6448416"><ele>6.0</ele><time>2026-04-19T07:50:19.948Z</time></trkpt><trkpt lat="45.1474458" lon="11.6448094"><ele>6.0</ele><time>2026-04-19T07:50:22.924Z</time></trkpt><trkpt lat="45.1473578" lon="11.6447822"><ele>6.0</ele><time>2026-04-19T07:50:25.94Z</time></trkpt><trkpt lat="45.1472698" lon="11.6447614"><ele>6.0</ele><time>2026-04-19T07:50:29.118Z</time></trkpt><trkpt lat="45.1471814" lon="11.644754"><ele>6.0</ele><time>2026-04-19T07:50:32.075Z</time></trkpt><trkpt lat="45.147118" lon="11.644753"><ele>6.0</ele><time>2026-04-19T07:50:34.047Z</time></trkpt><trkpt lat="45.147025" lon="11.6447401"><ele>6.0</ele><time>2026-04-19T07:50:37.17Z</time></trkpt><trkpt lat="45.1469398" lon="11.6447204"><ele>6.0</ele><time>2026-04-19T07:50:40.154Z</time></trkpt><trkpt lat="45.14685" lon="11.6447049"><ele>6.0</ele><time>2026-04-19T07:50:43.17Z</time></trkpt><trkpt lat="45.1467651" lon="11.6446728"><ele>6.0</ele><time>2026-04-19T07:50:46.162Z</time></trkpt><trkpt lat="45.1466834" lon="11.6446265"><ele>6.0</ele><time>2026-04-19T07:50:49.157Z</time></trkpt><trkpt lat="45.1466058" lon="11.6445696"><ele>6.0</ele><time>2026-04-19T07:50:52.188Z</time></trkpt><trkpt lat="45.1465131" lon="11.6445433"><ele>6.0</ele><time>2026-04-19T07:50:55.249Z</time></trkpt><trkpt lat="45.1464476" lon="11.6445399"><ele>6.0</ele><time>2026-04-19T07:50:57.151Z</time></trkpt><trkpt lat="45.1463533" lon="11.6445429"><ele>6.0</ele><time>2026-04-19T07:51:00.107Z</time></trkpt><trkpt lat="45.1462604" lon="11.6445407"><ele>6.0</ele><time>2026-04-19T07:51:03.064Z</time></trkpt><trkpt lat="45.1461929" lon="11.6445457"><ele>6.0</ele><time>2026-04-19T07:51:05.144Z</time></trkpt><trkpt lat="45.1461226" lon="11.6445634"><ele>6.0</ele><time>2026-04-19T07:51:07.115Z</time></trkpt><trkpt lat="45.1460354" lon="11.6445645"><ele>6.0</ele><time>2026-04-19T07:51:10.071Z</time></trkpt><trkpt lat="45.1459696" lon="11.6445706"><ele>6.0</ele><time>2026-04-19T07:51:12.151Z</time></trkpt><trkpt lat="45.1458776" lon="11.6445818"><ele>6.0</ele><time>2026-04-19T07:51:15.107Z</time></trkpt><trkpt lat="45.1458111" lon="11.644567"><ele>6.0</ele><time>2026-04-19T07:51:17.273Z</time></trkpt><trkpt lat="45.1457145" lon="11.6445287"><ele>6.0</ele><time>2026-04-19T07:51:20.506Z</time></trkpt><trkpt lat="45.145652" lon="11.6445148"><ele>6.0</ele><time>2026-04-19T07:51:22.5Z</time></trkpt><trkpt lat="45.145575" lon="11.6444877"><ele>6.0</ele><time>2026-04-19T07:51:25.489Z</time></trkpt><trkpt lat="45.1455077" lon="11.6444424"><ele>6.0</ele><time>2026-04-19T07:51:28.494Z</time></trkpt><trkpt lat="45.1454438" lon="11.6444262"><ele>6.0</ele><time>2026-04-19T07:51:30.792Z</time></trkpt><trkpt lat="45.145349" lon="11.6444193"><ele>6.0</ele><time>2026-04-19T07:51:33.818Z</time></trkpt><trkpt lat="45.1452504" lon="11.6444257"><ele>6.0</ele><time>2026-04-19T07:51:37.103Z</time></trkpt><trkpt lat="45.145179" lon="11.6444233"><ele>6.0</ele><time>2026-04-19T07:51:40.079Z</time></trkpt><trkpt lat="45.1451044" lon="11.6443998"><ele>6.0</ele><time>2026-04-19T07:51:43.129Z</time></trkpt><trkpt lat="45.1450298" lon="11.6443666"><ele>6.0</ele><time>2026-04-19T07:51:46.083Z</time></trkpt><trkpt lat="45.1449593" lon="11.6443391"><ele>6.0</ele><time>2026-04-19T07:51:49.109Z</time></trkpt><trkpt lat="45.1448869" lon="11.6442984"><ele>6.0</ele><time>2026-04-19T07:51:52.08Z</time></trkpt><trkpt lat="45.1448156" lon="11.644259"><ele>6.0</ele><time>2026-04-19T07:51:55.091Z</time></trkpt><trkpt lat="45.1447428" lon="11.6442261"><ele>6.0</ele><time>2026-04-19T07:51:58.077Z</time></trkpt><trkpt lat="45.14466" lon="11.644223"><ele>5.5</ele><time>2026-04-19T07:52:01.208Z</time></trkpt><trkpt lat="45.1444948" lon="11.6441825"><ele>5.0</ele><time>2026-04-19T07:52:08.219Z</time></trkpt><trkpt lat="45.1439383" lon="11.6439524"><ele>5.0</ele><time>2026-04-19T07:53:12.52Z</time></trkpt><trkpt lat="45.1434654" lon="11.6437979"><ele>5.5</ele><time>2026-04-19T07:53:18.216Z</time></trkpt><trkpt lat="45.1431804" lon="11.6437048"><ele>6.0</ele><time>2026-04-19T07:53:25.223Z</time></trkpt><trkpt lat="45.1426115" lon="11.6435665"><ele>6.0</ele><time>2026-04-19T07:53:33.558Z</time></trkpt><trkpt lat="45.1424346" lon="11.6435253"><ele>6.0</ele><time>2026-04-19T07:53:39.219Z</time></trkpt><trkpt lat="45.1427118" lon="11.6435906"><ele>6.0</ele><time>2026-04-19T07:53:47.53Z</time></trkpt><trkpt lat="45.1422981" lon="11.6433393"><ele>6.0</ele><time>2026-04-19T07:53:54.593Z</time></trkpt><trkpt lat="45.1420659" lon="11.6431957"><ele>6.0</ele><time>2026-04-19T07:54:01.526Z</time></trkpt><trkpt lat="45.1419691" lon="11.6431341"><ele>6.0</ele><time>2026-04-19T07:54:07.23Z</time></trkpt><trkpt lat="45.1418744" lon="11.6429576"><ele>6.0</ele><time>2026-04-19T07:54:15.599Z</time></trkpt><trkpt lat="45.1415559" lon="11.6428766"><ele>6.0</ele><time>2026-04-19T07:54:22.621Z</time></trkpt><trkpt lat="45.1414761" lon="11.6428884"><ele>6.0</ele><time>2026-04-19T07:54:29.68Z</time></trkpt><trkpt lat="45.1413861" lon="11.6428207"><ele>6.0</ele><time>2026-04-19T07:54:30.901Z</time></trkpt><trkpt lat="45.1413226" lon="11.642909"><ele>6.0</ele><time>2026-04-19T07:54:34.252Z</time></trkpt><trkpt lat="45.1412226" lon="11.6428433"><ele>6.0</ele><time>2026-04-19T07:54:35.233Z</time></trkpt><trkpt lat="45.1411528" lon="11.6428023"><ele>6.0</ele><time>2026-04-19T07:54:37.577Z</time></trkpt><trkpt lat="45.1410611" lon="11.6428333"><ele>6.0</ele><time>2026-04-19T07:54:40.601Z</time></trkpt><trkpt lat="45.1410014" lon="11.6429195"><ele>6.0</ele><time>2026-04-19T07:54:42.617Z</time></trkpt><trkpt lat="45.1409372" lon="11.6429712"><ele>6.0</ele><time>2026-04-19T07:54:44.93Z</time></trkpt><trkpt lat="45.1408783" lon="11.6430156"><ele>6.0</ele><time>2026-04-19T07:54:46.958Z</time></trkpt><trkpt lat="45.14082" lon="11.6430536"><ele>6.0</ele><time>2026-04-19T07:54:49.224Z</time></trkpt><trkpt lat="45.1406176" lon="11.6431982"><ele>6.0</ele><time>2026-04-19T07:54:57.562Z</time></trkpt><trkpt lat="45.1403691" lon="11.643291"><ele>5.666666666666667</ele><time>2026-04-19T07:55:04.63Z</time></trkpt><trkpt lat="45.1401685" lon="11.6434096"><ele>5.333333333333334</ele><time>2026-04-19T07:55:11.738Z</time></trkpt><trkpt lat="45.1400827" lon="11.6432886"><ele>5.0</ele><time>2026-04-19T07:55:18.617Z</time></trkpt><trkpt lat="45.1400388" lon="11.6434407"><ele>5.0</ele><time>2026-04-19T07:55:19.421Z</time></trkpt><trkpt lat="45.1399451" lon="11.6434435"><ele>5.0</ele><time>2026-04-19T07:55:22.784Z</time></trkpt><trkpt lat="45.1398532" lon="11.6434382"><ele>5.0</ele><time>2026-04-19T07:55:25.765Z</time></trkpt><trkpt lat="45.1397559" lon="11.6434363"><ele>5.0</ele><time>2026-04-19T07:55:29.101Z</time></trkpt><trkpt lat="45.1396726" lon="11.6434647"><ele>5.0</ele><time>2026-04-19T07:55:32.062Z</time></trkpt><trkpt lat="45.1395878" lon="11.6434865"><ele>5.0</ele><time>2026-04-19T07:55:35.112Z</time></trkpt><trkpt lat="45.1394979" lon="11.6435069"><ele>5.0</ele><time>2026-04-19T07:55:38.07Z</time></trkpt><trkpt lat="45.1394115" lon="11.6435205"><ele>5.0</ele><time>2026-04-19T07:55:41.085Z</time></trkpt><trkpt lat="45.1393296" lon="11.6435497"><ele>5.0</ele><time>2026-04-19T07:55:44.091Z</time></trkpt><trkpt lat="45.1392484" lon="11.6435823"><ele>5.0</ele><time>2026-04-19T07:55:47.107Z</time></trkpt><trkpt lat="45.1391654" lon="11.6436116"><ele>5.0</ele><time>2026-04-19T07:55:50.09Z</time></trkpt><trkpt lat="45.1390865" lon="11.6436482"><ele>5.0</ele><time>2026-04-19T07:55:53.04Z</time></trkpt><trkpt lat="45.1389964" lon="11.6436772"><ele>5.0</ele><time>2026-04-19T07:55:56.003Z</time></trkpt><trkpt lat="45.1389079" lon="11.6436885"><ele>5.0</ele><time>2026-04-19T07:55:59.029Z</time></trkpt><trkpt lat="45.1388442" lon="11.6437011"><ele>5.0</ele><time>2026-04-19T07:56:01.05Z</time></trkpt><trkpt lat="45.1387556" lon="11.6437245"><ele>5.0</ele><time>2026-04-19T07:56:03.986Z</time></trkpt><trkpt lat="45.1388638" lon="11.6438011"><ele>5.0</ele><time>2026-04-19T07:56:07.59Z</time></trkpt><trkpt lat="45.1383883" lon="11.6438988"><ele>5.0</ele><time>2026-04-19T07:56:14.555Z</time></trkpt><trkpt lat="45.1382346" lon="11.6439404"><ele>5.0</ele><time>2026-04-19T07:56:21.599Z</time></trkpt><trkpt lat="45.1381414" lon="11.6439657"><ele>5.0</ele><time>2026-04-19T07:56:34.211Z</time></trkpt><trkpt lat="45.1345522" lon="11.6476532"><ele>5.0</ele><time>2026-04-19T07:59:01.543Z</time></trkpt><trkpt lat="45.1345789" lon="11.6478227"><ele>5.0</ele><time>2026-04-19T07:59:24.751Z</time></trkpt><trkpt lat="45.1345087" lon="11.647909"><ele>5.0</ele><time>2026-04-19T07:59:26.789Z</time></trkpt><trkpt lat="45.1344676" lon="11.6480099"><ele>5.0</ele><time>2026-04-19T07:59:27.803Z</time></trkpt><trkpt lat="45.1344019" lon="11.6480673"><ele>5.0</ele><time>2026-04-19T07:59:30.81Z</time></trkpt><trkpt lat="45.1343501" lon="11.6481544"><ele>5.0</ele><time>2026-04-19T07:59:33.839Z</time></trkpt><trkpt lat="45.1343177" lon="11.6482558"><ele>5.0</ele><time>2026-04-19T07:59:36.83Z</time></trkpt><trkpt lat="45.1342892" lon="11.6483394"><ele>5.0</ele><time>2026-04-19T07:59:39.927Z</time></trkpt><trkpt lat="45.1342337" lon="11.6484223"><ele>5.0</ele><time>2026-04-19T07:59:42.869Z</time></trkpt><trkpt lat="45.1341722" lon="11.6485038"><ele>5.0</ele><time>2026-04-19T07:59:45.931Z</time></trkpt><trkpt lat="45.1341275" lon="11.648602"><ele>5.0</ele><time>2026-04-19T07:59:48.909Z</time></trkpt><trkpt lat="45.134111" lon="11.648689"><ele>5.0</ele><time>2026-04-19T07:59:51.143Z</time></trkpt><trkpt lat="45.1340718" lon="11.6487822"><ele>5.0</ele><time>2026-04-19T07:59:54.099Z</time></trkpt><trkpt lat="45.1340213" lon="11.6488763"><ele>5.0</ele><time>2026-04-19T07:59:57.538Z</time></trkpt><trkpt lat="45.1338537" lon="11.6492107"><ele>5.0</ele><time>2026-04-19T08:00:10.22Z</time></trkpt><trkpt lat="45.133802" lon="11.6497848"><ele>5.25</ele><time>2026-04-19T08:00:18.592Z</time></trkpt><trkpt lat="45.133776" lon="11.6499717"><ele>5.5</ele><time>2026-04-19T08:00:25.614Z</time></trkpt><trkpt lat="45.1338786" lon="11.6497795"><ele>5.75</ele><time>2026-04-19T08:00:26.707Z</time></trkpt><trkpt lat="45.1339503" lon="11.6498019"><ele>6.0</ele><time>2026-04-19T08:00:29.779Z</time></trkpt><trkpt lat="45.1339151" lon="11.6498946"><ele>6.0</ele><time>2026-04-19T08:00:31.878Z</time></trkpt><trkpt lat="45.1338289" lon="11.6500078"><ele>6.0</ele><time>2026-04-19T08:00:32.95Z</time></trkpt><trkpt lat="45.1338134" lon="11.650122"><ele>6.0</ele><time>2026-04-19T08:00:36.117Z</time></trkpt><trkpt lat="45.133821" lon="11.6502148"><ele>6.0</ele><time>2026-04-19T08:00:38.106Z</time></trkpt><trkpt lat="45.1338359" lon="11.650312"><ele>6.0</ele><time>2026-04-19T08:00:40.16Z</time></trkpt><trkpt lat="45.1338853" lon="11.6504106"><ele>6.0</ele><time>2026-04-19T08:00:43.125Z</time></trkpt><trkpt lat="45.1339559" lon="11.6504457"><ele>5.857142857142857</ele><time>2026-04-19T08:00:45.162Z</time></trkpt><trkpt lat="45.1340152" lon="11.6504924"><ele>5.714285714285714</ele><time>2026-04-19T08:00:47.163Z</time></trkpt><trkpt lat="45.13408" lon="11.6505355"><ele>5.571428571428571</ele><time>2026-04-19T08:00:49.15Z</time></trkpt><trkpt lat="45.1341423" lon="11.6505801"><ele>5.428571428571429</ele><time>2026-04-19T08:00:51.132Z</time></trkpt><trkpt lat="45.1341999" lon="11.650651"><ele>5.285714285714286</ele><time>2026-04-19T08:00:53.136Z</time></trkpt><trkpt lat="45.1342516" lon="11.6507157"><ele>5.142857142857142</ele><time>2026-04-19T08:00:55.107Z</time></trkpt><trkpt lat="45.134304" lon="11.6507767"><ele>5.0</ele><time>2026-04-19T08:00:57.138Z</time></trkpt><trkpt lat="45.1343527" lon="11.6508441"><ele>5.0</ele><time>2026-04-19T08:00:59.13Z</time></trkpt><trkpt lat="45.1344221" lon="11.6509328"><ele>5.0</ele><time>2026-04-19T08:01:02.071Z</time></trkpt><trkpt lat="45.1344884" lon="11.6510107"><ele>5.0</ele><time>2026-04-19T08:01:05.057Z</time></trkpt><trkpt lat="45.1345573" lon="11.6510744"><ele>5.0</ele><time>2026-04-19T08:01:07.983Z</time></trkpt><trkpt lat="45.1346316" lon="11.6511429"><ele>5.0</ele><time>2026-04-19T08:01:11.06Z</time></trkpt><trkpt lat="45.1347024" lon="11.6511681"><ele>5.0</ele><time>2026-04-19T08:01:14.09Z</time></trkpt><trkpt lat="45.1339303" lon="11.6504786"><ele>5.0</ele><time>2026-04-19T08:01:27.222Z</time></trkpt><trkpt lat="45.1329561" lon="11.6593923"><ele>6.0</ele><time>2026-04-19T08:06:54.675Z</time></trkpt><trkpt lat="45.1323833" lon="11.6646729"><ele>3.0</ele><time>2026-04-19T08:10:46.548Z</time></trkpt><trkpt lat="45.1314279" lon="11.6672599"><ele>6.0</ele><time>2026-04-19T08:11:35.747Z</time></trkpt><trkpt lat="45.1282316" lon="11.6810828"><ele>5.5</ele><time>2026-04-19T08:18:35.704Z</time></trkpt><trkpt lat="45.1281153" lon="11.6814619"><ele>5.0</ele><time>2026-04-19T08:18:42.674Z</time></trkpt><trkpt lat="45.1296192" lon="11.6862077"><ele>5.0</ele><time>2026-04-19T08:20:40.662Z</time></trkpt></trkseg></trk></gpx>